<?xml version="1.0" encoding="UTF-8" standalone="no" ?>
<gpx xmlns="http://www.topografix.com/GPX/1/1" xmlns:xsi="http://www.w3.org/2001/XMLSchema-instance" xsi:schemaLocation="http://www.topografix.com/GPX/1/1 http://www.topografix.com/GPX/1/1/gpx.xsd" version="1.1" creator="VisuGPX - https://www.visugpx.com">
  <metadata>
    <name>Chateauvieux-Fouillouse-Sigoyer</name>
    <desc><![CDATA[avec Christophe]]></desc>
  </metadata>
  <trk>
    <name><![CDATA[Chateauvieux-Fouillouse-Sigoyer]]></name>
    <trkseg>
      <trkpt lat="44.55798" lon="6.05424">
        <ele>847.05883789062</ele>
        <time>2014-06-08T07:11:37Z</time>
      </trkpt>
      <trkpt lat="44.55798" lon="6.05424">
        <ele>847.05883789062</ele>
        <time>2014-06-08T07:11:38Z</time>
      </trkpt>
      <trkpt lat="44.55798" lon="6.05424">
        <ele>846.57836914062</ele>
        <time>2014-06-08T07:11:39Z</time>
      </trkpt>
      <trkpt lat="44.55801" lon="6.05424">
        <ele>847.05883789062</ele>
        <time>2014-06-08T07:12:23Z</time>
      </trkpt>
      <trkpt lat="44.55804" lon="6.05431">
        <ele>846.09765625</ele>
        <time>2014-06-08T07:12:29Z</time>
      </trkpt>
      <trkpt lat="44.55806" lon="6.05456">
        <ele>846.09765625</ele>
        <time>2014-06-08T07:12:52Z</time>
      </trkpt>
      <trkpt lat="44.55804" lon="6.05483">
        <ele>845.61694335938</ele>
        <time>2014-06-08T07:13:04Z</time>
      </trkpt>
      <trkpt lat="44.558" lon="6.05494">
        <ele>845.13623046875</ele>
        <time>2014-06-08T07:13:06Z</time>
      </trkpt>
      <trkpt lat="44.55778" lon="6.05502">
        <ele>844.65551757812</ele>
        <time>2014-06-08T07:13:12Z</time>
      </trkpt>
      <trkpt lat="44.55769" lon="6.05493">
        <ele>844.65551757812</ele>
        <time>2014-06-08T07:13:14Z</time>
      </trkpt>
      <trkpt lat="44.55739" lon="6.05494">
        <ele>845.13623046875</ele>
        <time>2014-06-08T07:13:20Z</time>
      </trkpt>
      <trkpt lat="44.55709" lon="6.05506">
        <ele>843.69409179688</ele>
        <time>2014-06-08T07:13:25Z</time>
      </trkpt>
      <trkpt lat="44.55652" lon="6.05506">
        <ele>841.771484375</ele>
        <time>2014-06-08T07:13:32Z</time>
      </trkpt>
      <trkpt lat="44.55603" lon="6.05504">
        <ele>839.3681640625</ele>
        <time>2014-06-08T07:13:37Z</time>
      </trkpt>
      <trkpt lat="44.55548" lon="6.05502">
        <ele>835.52294921875</ele>
        <time>2014-06-08T07:13:42Z</time>
      </trkpt>
      <trkpt lat="44.55472" lon="6.05497">
        <ele>832.15844726562</ele>
        <time>2014-06-08T07:13:49Z</time>
      </trkpt>
      <trkpt lat="44.55316" lon="6.05491">
        <ele>830.71655273438</ele>
        <time>2014-06-08T07:14:06Z</time>
      </trkpt>
      <trkpt lat="44.55186" lon="6.05501">
        <ele>827.83227539062</ele>
        <time>2014-06-08T07:14:21Z</time>
      </trkpt>
      <trkpt lat="44.55062" lon="6.05516">
        <ele>824.94848632812</ele>
        <time>2014-06-08T07:14:35Z</time>
      </trkpt>
      <trkpt lat="44.54941" lon="6.05513">
        <ele>823.98706054688</ele>
        <time>2014-06-08T07:14:50Z</time>
      </trkpt>
      <trkpt lat="44.549" lon="6.05501">
        <ele>821.10327148438</ele>
        <time>2014-06-08T07:14:54Z</time>
      </trkpt>
      <trkpt lat="44.54808" lon="6.05444">
        <ele>817.73852539062</ele>
        <time>2014-06-08T07:15:04Z</time>
      </trkpt>
      <trkpt lat="44.54652" lon="6.05341">
        <ele>814.3740234375</ele>
        <time>2014-06-08T07:15:22Z</time>
      </trkpt>
      <trkpt lat="44.54577" lon="6.05342">
        <ele>811.00927734375</ele>
        <time>2014-06-08T07:15:29Z</time>
      </trkpt>
      <trkpt lat="44.5452" lon="6.0534">
        <ele>807.64477539062</ele>
        <time>2014-06-08T07:15:34Z</time>
      </trkpt>
      <trkpt lat="44.54427" lon="6.05311">
        <ele>804.7607421875</ele>
        <time>2014-06-08T07:15:43Z</time>
      </trkpt>
      <trkpt lat="44.54304" lon="6.05272">
        <ele>801.39624023438</ele>
        <time>2014-06-08T07:15:56Z</time>
      </trkpt>
      <trkpt lat="44.5421" lon="6.05236">
        <ele>797.55102539062</ele>
        <time>2014-06-08T07:16:06Z</time>
      </trkpt>
      <trkpt lat="44.542" lon="6.05231">
        <ele>797.55102539062</ele>
        <time>2014-06-08T07:16:07Z</time>
      </trkpt>
      <trkpt lat="44.54129" lon="6.05209">
        <ele>794.66674804688</ele>
        <time>2014-06-08T07:16:14Z</time>
      </trkpt>
      <trkpt lat="44.54088" lon="6.05201">
        <ele>793.22485351562</ele>
        <time>2014-06-08T07:16:18Z</time>
      </trkpt>
      <trkpt lat="44.54026" lon="6.0519">
        <ele>790.34106445312</ele>
        <time>2014-06-08T07:16:24Z</time>
      </trkpt>
      <trkpt lat="44.54015" lon="6.05188">
        <ele>789.8603515625</ele>
        <time>2014-06-08T07:16:25Z</time>
      </trkpt>
      <trkpt lat="44.53963" lon="6.05178">
        <ele>787.45703125</ele>
        <time>2014-06-08T07:16:30Z</time>
      </trkpt>
      <trkpt lat="44.53919" lon="6.0517">
        <ele>784.09252929688</ele>
        <time>2014-06-08T07:16:34Z</time>
      </trkpt>
      <trkpt lat="44.53907" lon="6.05168">
        <ele>783.61181640625</ele>
        <time>2014-06-08T07:16:35Z</time>
      </trkpt>
      <trkpt lat="44.53848" lon="6.05166">
        <ele>780.72802734375</ele>
        <time>2014-06-08T07:16:40Z</time>
      </trkpt>
      <trkpt lat="44.53816" lon="6.05165">
        <ele>777.36328125</ele>
        <time>2014-06-08T07:16:43Z</time>
      </trkpt>
      <trkpt lat="44.53805" lon="6.05165">
        <ele>777.36328125</ele>
        <time>2014-06-08T07:16:44Z</time>
      </trkpt>
      <trkpt lat="44.53795" lon="6.05165">
        <ele>776.40185546875</ele>
        <time>2014-06-08T07:16:45Z</time>
      </trkpt>
      <trkpt lat="44.53758" lon="6.05158">
        <ele>776.40185546875</ele>
        <time>2014-06-08T07:16:49Z</time>
      </trkpt>
      <trkpt lat="44.53731" lon="6.05161">
        <ele>775.92114257812</ele>
        <time>2014-06-08T07:16:52Z</time>
      </trkpt>
      <trkpt lat="44.53582" lon="6.05125">
        <ele>775.4404296875</ele>
        <time>2014-06-08T07:17:10Z</time>
      </trkpt>
      <trkpt lat="44.53498" lon="6.05033">
        <ele>773.51806640625</ele>
        <time>2014-06-08T07:17:23Z</time>
      </trkpt>
      <trkpt lat="44.53455" lon="6.04981">
        <ele>775.4404296875</ele>
        <time>2014-06-08T07:17:30Z</time>
      </trkpt>
      <trkpt lat="44.53421" lon="6.04966">
        <ele>777.36328125</ele>
        <time>2014-06-08T07:17:36Z</time>
      </trkpt>
      <trkpt lat="44.53391" lon="6.04971">
        <ele>778.80517578125</ele>
        <time>2014-06-08T07:17:42Z</time>
      </trkpt>
      <trkpt lat="44.53347" lon="6.04952">
        <ele>779.76635742188</ele>
        <time>2014-06-08T07:17:51Z</time>
      </trkpt>
      <trkpt lat="44.53274" lon="6.0488">
        <ele>782.169921875</ele>
        <time>2014-06-08T07:18:08Z</time>
      </trkpt>
      <trkpt lat="44.53187" lon="6.04827">
        <ele>782.169921875</ele>
        <time>2014-06-08T07:18:26Z</time>
      </trkpt>
      <trkpt lat="44.53082" lon="6.04799">
        <ele>781.68920898438</ele>
        <time>2014-06-08T07:18:42Z</time>
      </trkpt>
      <trkpt lat="44.52924" lon="6.04801">
        <ele>780.24731445312</ele>
        <time>2014-06-08T07:19:04Z</time>
      </trkpt>
      <trkpt lat="44.52745" lon="6.04797">
        <ele>778.32446289062</ele>
        <time>2014-06-08T07:19:29Z</time>
      </trkpt>
      <trkpt lat="44.5261" lon="6.04809">
        <ele>776.88256835938</ele>
        <time>2014-06-08T07:19:49Z</time>
      </trkpt>
      <trkpt lat="44.52479" lon="6.04816">
        <ele>776.40185546875</ele>
        <time>2014-06-08T07:20:09Z</time>
      </trkpt>
      <trkpt lat="44.52388" lon="6.04816">
        <ele>773.03735351562</ele>
        <time>2014-06-08T07:20:22Z</time>
      </trkpt>
      <trkpt lat="44.52309" lon="6.04818">
        <ele>770.1533203125</ele>
        <time>2014-06-08T07:20:31Z</time>
      </trkpt>
      <trkpt lat="44.52191" lon="6.04824">
        <ele>766.78881835938</ele>
        <time>2014-06-08T07:20:45Z</time>
      </trkpt>
      <trkpt lat="44.52086" lon="6.04827">
        <ele>763.90454101562</ele>
        <time>2014-06-08T07:20:59Z</time>
      </trkpt>
      <trkpt lat="44.52006" lon="6.04828">
        <ele>761.02075195312</ele>
        <time>2014-06-08T07:21:09Z</time>
      </trkpt>
      <trkpt lat="44.51998" lon="6.04828">
        <ele>760.5400390625</ele>
        <time>2014-06-08T07:21:10Z</time>
      </trkpt>
      <trkpt lat="44.51958" lon="6.0481">
        <ele>758.61743164062</ele>
        <time>2014-06-08T07:21:15Z</time>
      </trkpt>
      <trkpt lat="44.51921" lon="6.04773">
        <ele>756.21411132812</ele>
        <time>2014-06-08T07:21:20Z</time>
      </trkpt>
      <trkpt lat="44.51913" lon="6.04765">
        <ele>755.2529296875</ele>
        <time>2014-06-08T07:21:21Z</time>
      </trkpt>
      <trkpt lat="44.51892" lon="6.0471">
        <ele>752.849609375</ele>
        <time>2014-06-08T07:21:26Z</time>
      </trkpt>
      <trkpt lat="44.51885" lon="6.04623">
        <ele>749.9658203125</ele>
        <time>2014-06-08T07:21:32Z</time>
      </trkpt>
      <trkpt lat="44.51863" lon="6.04562">
        <ele>746.12036132812</ele>
        <time>2014-06-08T07:21:37Z</time>
      </trkpt>
      <trkpt lat="44.51854" lon="6.04555">
        <ele>746.12036132812</ele>
        <time>2014-06-08T07:21:38Z</time>
      </trkpt>
      <trkpt lat="44.51825" lon="6.04544">
        <ele>745.6396484375</ele>
        <time>2014-06-08T07:21:41Z</time>
      </trkpt>
      <trkpt lat="44.51762" lon="6.04535">
        <ele>741.79443359375</ele>
        <time>2014-06-08T07:21:47Z</time>
      </trkpt>
      <trkpt lat="44.51752" lon="6.04535">
        <ele>740.3525390625</ele>
        <time>2014-06-08T07:21:48Z</time>
      </trkpt>
      <trkpt lat="44.51728" lon="6.04546">
        <ele>738.42993164062</ele>
        <time>2014-06-08T07:21:51Z</time>
      </trkpt>
      <trkpt lat="44.51733" lon="6.04586">
        <ele>736.02661132812</ele>
        <time>2014-06-08T07:21:55Z</time>
      </trkpt>
      <trkpt lat="44.51741" lon="6.04592">
        <ele>735.5458984375</ele>
        <time>2014-06-08T07:21:56Z</time>
      </trkpt>
      <trkpt lat="44.51768" lon="6.04609">
        <ele>734.58471679688</ele>
        <time>2014-06-08T07:21:59Z</time>
      </trkpt>
      <trkpt lat="44.5179" lon="6.04674">
        <ele>731.21997070312</ele>
        <time>2014-06-08T07:22:05Z</time>
      </trkpt>
      <trkpt lat="44.51785" lon="6.04686">
        <ele>730.7392578125</ele>
        <time>2014-06-08T07:22:06Z</time>
      </trkpt>
      <trkpt lat="44.51761" lon="6.04735">
        <ele>728.3359375</ele>
        <time>2014-06-08T07:22:10Z</time>
      </trkpt>
      <trkpt lat="44.51737" lon="6.04782">
        <ele>725.45190429688</ele>
        <time>2014-06-08T07:22:14Z</time>
      </trkpt>
      <trkpt lat="44.51684" lon="6.0482">
        <ele>722.08740234375</ele>
        <time>2014-06-08T07:22:20Z</time>
      </trkpt>
      <trkpt lat="44.51662" lon="6.04816">
        <ele>720.6455078125</ele>
        <time>2014-06-08T07:22:22Z</time>
      </trkpt>
      <trkpt lat="44.51619" lon="6.048">
        <ele>718.2421875</ele>
        <time>2014-06-08T07:22:26Z</time>
      </trkpt>
      <trkpt lat="44.51491" lon="6.04755">
        <ele>715.8388671875</ele>
        <time>2014-06-08T07:22:39Z</time>
      </trkpt>
      <trkpt lat="44.51369" lon="6.04707">
        <ele>714.39672851562</ele>
        <time>2014-06-08T07:22:55Z</time>
      </trkpt>
      <trkpt lat="44.51218" lon="6.04655">
        <ele>711.51293945312</ele>
        <time>2014-06-08T07:23:14Z</time>
      </trkpt>
      <trkpt lat="44.51065" lon="6.04607">
        <ele>708.1484375</ele>
        <time>2014-06-08T07:23:32Z</time>
      </trkpt>
      <trkpt lat="44.50984" lon="6.04583">
        <ele>707.66772460938</ele>
        <time>2014-06-08T07:23:43Z</time>
      </trkpt>
      <trkpt lat="44.50961" lon="6.04563">
        <ele>707.66772460938</ele>
        <time>2014-06-08T07:23:47Z</time>
      </trkpt>
      <trkpt lat="44.50931" lon="6.04564">
        <ele>706.2255859375</ele>
        <time>2014-06-08T07:23:51Z</time>
      </trkpt>
      <trkpt lat="44.50782" lon="6.04516">
        <ele>703.341796875</ele>
        <time>2014-06-08T07:24:09Z</time>
      </trkpt>
      <trkpt lat="44.50544" lon="6.04435">
        <ele>701.41918945312</ele>
        <time>2014-06-08T07:24:37Z</time>
      </trkpt>
      <trkpt lat="44.50286" lon="6.0435">
        <ele>700.9384765625</ele>
        <time>2014-06-08T07:25:07Z</time>
      </trkpt>
      <trkpt lat="44.5009" lon="6.04284">
        <ele>702.38037109375</ele>
        <time>2014-06-08T07:25:32Z</time>
      </trkpt>
      <trkpt lat="44.49819" lon="6.04192">
        <ele>703.82250976562</ele>
        <time>2014-06-08T07:26:05Z</time>
      </trkpt>
      <trkpt lat="44.49588" lon="6.04115">
        <ele>705.26440429688</ele>
        <time>2014-06-08T07:26:34Z</time>
      </trkpt>
      <trkpt lat="44.49479" lon="6.04081">
        <ele>704.78369140625</ele>
        <time>2014-06-08T07:26:48Z</time>
      </trkpt>
      <trkpt lat="44.49447" lon="6.04075">
        <ele>704.30322265625</ele>
        <time>2014-06-08T07:26:52Z</time>
      </trkpt>
      <trkpt lat="44.49415" lon="6.04103">
        <ele>703.341796875</ele>
        <time>2014-06-08T07:26:58Z</time>
      </trkpt>
      <trkpt lat="44.49413" lon="6.04112">
        <ele>702.86108398438</ele>
        <time>2014-06-08T07:26:59Z</time>
      </trkpt>
      <trkpt lat="44.49392" lon="6.04237">
        <ele>705.26440429688</ele>
        <time>2014-06-08T07:27:17Z</time>
      </trkpt>
      <trkpt lat="44.49386" lon="6.04248">
        <ele>705.7451171875</ele>
        <time>2014-06-08T07:27:20Z</time>
      </trkpt>
      <trkpt lat="44.49345" lon="6.04246">
        <ele>706.70629882812</ele>
        <time>2014-06-08T07:27:30Z</time>
      </trkpt>
      <trkpt lat="44.49338" lon="6.0424">
        <ele>707.18701171875</ele>
        <time>2014-06-08T07:27:32Z</time>
      </trkpt>
      <trkpt lat="44.49304" lon="6.04225">
        <ele>710.55151367188</ele>
        <time>2014-06-08T07:27:42Z</time>
      </trkpt>
      <trkpt lat="44.49243" lon="6.04218">
        <ele>713.435546875</ele>
        <time>2014-06-08T07:27:58Z</time>
      </trkpt>
      <trkpt lat="44.4925" lon="6.0424">
        <ele>714.87744140625</ele>
        <time>2014-06-08T07:28:05Z</time>
      </trkpt>
      <trkpt lat="44.49298" lon="6.04267">
        <ele>717.76147460938</ele>
        <time>2014-06-08T07:28:20Z</time>
      </trkpt>
      <trkpt lat="44.49322" lon="6.04321">
        <ele>720.6455078125</ele>
        <time>2014-06-08T07:28:33Z</time>
      </trkpt>
      <trkpt lat="44.49349" lon="6.04368">
        <ele>724.01000976562</ele>
        <time>2014-06-08T07:28:46Z</time>
      </trkpt>
      <trkpt lat="44.4936" lon="6.04388">
        <ele>724.97143554688</ele>
        <time>2014-06-08T07:28:51Z</time>
      </trkpt>
      <trkpt lat="44.49347" lon="6.04395">
        <ele>726.41333007812</ele>
        <time>2014-06-08T07:28:57Z</time>
      </trkpt>
      <trkpt lat="44.49292" lon="6.04351">
        <ele>729.77783203125</ele>
        <time>2014-06-08T07:29:14Z</time>
      </trkpt>
      <trkpt lat="44.49262" lon="6.0433">
        <ele>732.18139648438</ele>
        <time>2014-06-08T07:29:23Z</time>
      </trkpt>
      <trkpt lat="44.49235" lon="6.04295">
        <ele>735.0654296875</ele>
        <time>2014-06-08T07:29:35Z</time>
      </trkpt>
      <trkpt lat="44.49188" lon="6.043">
        <ele>738.42993164062</ele>
        <time>2014-06-08T07:29:49Z</time>
      </trkpt>
      <trkpt lat="44.49146" lon="6.0428">
        <ele>740.8330078125</ele>
        <time>2014-06-08T07:30:02Z</time>
      </trkpt>
      <trkpt lat="44.49149" lon="6.04302">
        <ele>742.27514648438</ele>
        <time>2014-06-08T07:30:09Z</time>
      </trkpt>
      <trkpt lat="44.49198" lon="6.04327">
        <ele>745.15893554688</ele>
        <time>2014-06-08T07:30:25Z</time>
      </trkpt>
      <trkpt lat="44.49214" lon="6.04343">
        <ele>746.60107421875</ele>
        <time>2014-06-08T07:30:31Z</time>
      </trkpt>
      <trkpt lat="44.49211" lon="6.04406">
        <ele>749.9658203125</ele>
        <time>2014-06-08T07:30:45Z</time>
      </trkpt>
      <trkpt lat="44.49201" lon="6.04463">
        <ele>753.33032226562</ele>
        <time>2014-06-08T07:30:58Z</time>
      </trkpt>
      <trkpt lat="44.49196" lon="6.0452">
        <ele>756.21411132812</ele>
        <time>2014-06-08T07:31:10Z</time>
      </trkpt>
      <trkpt lat="44.49182" lon="6.04579">
        <ele>759.57885742188</ele>
        <time>2014-06-08T07:31:24Z</time>
      </trkpt>
      <trkpt lat="44.49169" lon="6.04635">
        <ele>762.943359375</ele>
        <time>2014-06-08T07:31:38Z</time>
      </trkpt>
      <trkpt lat="44.49167" lon="6.04699">
        <ele>765.82763671875</ele>
        <time>2014-06-08T07:31:53Z</time>
      </trkpt>
      <trkpt lat="44.49156" lon="6.04755">
        <ele>769.19213867188</ele>
        <time>2014-06-08T07:32:06Z</time>
      </trkpt>
      <trkpt lat="44.49145" lon="6.04819">
        <ele>772.07592773438</ele>
        <time>2014-06-08T07:32:21Z</time>
      </trkpt>
      <trkpt lat="44.49126" lon="6.04889">
        <ele>774.47924804688</ele>
        <time>2014-06-08T07:32:39Z</time>
      </trkpt>
      <trkpt lat="44.49097" lon="6.04977">
        <ele>776.40185546875</ele>
        <time>2014-06-08T07:32:58Z</time>
      </trkpt>
      <trkpt lat="44.49082" lon="6.05011">
        <ele>779.28564453125</ele>
        <time>2014-06-08T07:33:08Z</time>
      </trkpt>
      <trkpt lat="44.49066" lon="6.05017">
        <ele>781.20874023438</ele>
        <time>2014-06-08T07:33:14Z</time>
      </trkpt>
      <trkpt lat="44.49034" lon="6.04997">
        <ele>784.09252929688</ele>
        <time>2014-06-08T07:33:26Z</time>
      </trkpt>
      <trkpt lat="44.48994" lon="6.04986">
        <ele>787.45703125</ele>
        <time>2014-06-08T07:33:40Z</time>
      </trkpt>
      <trkpt lat="44.48946" lon="6.04995">
        <ele>790.34106445312</ele>
        <time>2014-06-08T07:33:56Z</time>
      </trkpt>
      <trkpt lat="44.48909" lon="6.05006">
        <ele>793.22485351562</ele>
        <time>2014-06-08T07:34:09Z</time>
      </trkpt>
      <trkpt lat="44.48861" lon="6.05012">
        <ele>796.58984375</ele>
        <time>2014-06-08T07:34:25Z</time>
      </trkpt>
      <trkpt lat="44.48822" lon="6.05017">
        <ele>799.4736328125</ele>
        <time>2014-06-08T07:34:39Z</time>
      </trkpt>
      <trkpt lat="44.4879" lon="6.05001">
        <ele>800.43505859375</ele>
        <time>2014-06-08T07:34:53Z</time>
      </trkpt>
      <trkpt lat="44.48736" lon="6.04982">
        <ele>798.03173828125</ele>
        <time>2014-06-08T07:35:05Z</time>
      </trkpt>
      <trkpt lat="44.48674" lon="6.04973">
        <ele>794.66674804688</ele>
        <time>2014-06-08T07:35:12Z</time>
      </trkpt>
      <trkpt lat="44.48654" lon="6.04968">
        <ele>793.70556640625</ele>
        <time>2014-06-08T07:35:14Z</time>
      </trkpt>
      <trkpt lat="44.48614" lon="6.04968">
        <ele>792.263671875</ele>
        <time>2014-06-08T07:35:18Z</time>
      </trkpt>
      <trkpt lat="44.48586" lon="6.04975">
        <ele>791.30224609375</ele>
        <time>2014-06-08T07:35:21Z</time>
      </trkpt>
      <trkpt lat="44.48488" lon="6.04957">
        <ele>789.37963867188</ele>
        <time>2014-06-08T07:35:33Z</time>
      </trkpt>
      <trkpt lat="44.48467" lon="6.04949">
        <ele>788.89916992188</ele>
        <time>2014-06-08T07:35:36Z</time>
      </trkpt>
      <trkpt lat="44.48426" lon="6.0496">
        <ele>787.93774414062</ele>
        <time>2014-06-08T07:35:42Z</time>
      </trkpt>
      <trkpt lat="44.48397" lon="6.04987">
        <ele>787.93774414062</ele>
        <time>2014-06-08T07:35:47Z</time>
      </trkpt>
      <trkpt lat="44.48382" lon="6.05022">
        <ele>787.45703125</ele>
        <time>2014-06-08T07:35:52Z</time>
      </trkpt>
      <trkpt lat="44.48377" lon="6.05047">
        <ele>787.93774414062</ele>
        <time>2014-06-08T07:35:55Z</time>
      </trkpt>
      <trkpt lat="44.48354" lon="6.05098">
        <ele>787.45703125</ele>
        <time>2014-06-08T07:36:03Z</time>
      </trkpt>
      <trkpt lat="44.48345" lon="6.05118">
        <ele>787.45703125</ele>
        <time>2014-06-08T07:36:06Z</time>
      </trkpt>
      <trkpt lat="44.48299" lon="6.05202">
        <ele>785.53442382812</ele>
        <time>2014-06-08T07:36:21Z</time>
      </trkpt>
      <trkpt lat="44.48258" lon="6.05236">
        <ele>783.61181640625</ele>
        <time>2014-06-08T07:36:29Z</time>
      </trkpt>
      <trkpt lat="44.48218" lon="6.05246">
        <ele>782.65063476562</ele>
        <time>2014-06-08T07:36:34Z</time>
      </trkpt>
      <trkpt lat="44.48184" lon="6.05261">
        <ele>780.24731445312</ele>
        <time>2014-06-08T07:36:38Z</time>
      </trkpt>
      <trkpt lat="44.48139" lon="6.05236">
        <ele>777.84375</ele>
        <time>2014-06-08T07:36:43Z</time>
      </trkpt>
      <trkpt lat="44.48115" lon="6.05205">
        <ele>775.92114257812</ele>
        <time>2014-06-08T07:36:46Z</time>
      </trkpt>
      <trkpt lat="44.48076" lon="6.05134">
        <ele>772.07592773438</ele>
        <time>2014-06-08T07:36:52Z</time>
      </trkpt>
      <trkpt lat="44.48048" lon="6.05087">
        <ele>769.6728515625</ele>
        <time>2014-06-08T07:36:56Z</time>
      </trkpt>
      <trkpt lat="44.48024" lon="6.05058">
        <ele>767.75</ele>
        <time>2014-06-08T07:36:59Z</time>
      </trkpt>
      <trkpt lat="44.47999" lon="6.05008">
        <ele>764.8662109375</ele>
        <time>2014-06-08T07:37:03Z</time>
      </trkpt>
      <trkpt lat="44.47961" lon="6.04989">
        <ele>762.943359375</ele>
        <time>2014-06-08T07:37:07Z</time>
      </trkpt>
      <trkpt lat="44.47917" lon="6.04989">
        <ele>761.02075195312</ele>
        <time>2014-06-08T07:37:11Z</time>
      </trkpt>
      <trkpt lat="44.47848" lon="6.05014">
        <ele>757.17553710938</ele>
        <time>2014-06-08T07:37:17Z</time>
      </trkpt>
      <trkpt lat="44.47799" lon="6.05013">
        <ele>754.77221679688</ele>
        <time>2014-06-08T07:37:21Z</time>
      </trkpt>
      <trkpt lat="44.47741" lon="6.05002">
        <ele>750.92700195312</ele>
        <time>2014-06-08T07:37:26Z</time>
      </trkpt>
      <trkpt lat="44.47719" lon="6.04995">
        <ele>749.48510742188</ele>
        <time>2014-06-08T07:37:28Z</time>
      </trkpt>
      <trkpt lat="44.47667" lon="6.04955">
        <ele>746.12036132812</ele>
        <time>2014-06-08T07:37:33Z</time>
      </trkpt>
      <trkpt lat="44.47622" lon="6.04931">
        <ele>742.755859375</ele>
        <time>2014-06-08T07:37:37Z</time>
      </trkpt>
      <trkpt lat="44.47611" lon="6.04927">
        <ele>741.79443359375</ele>
        <time>2014-06-08T07:37:38Z</time>
      </trkpt>
      <trkpt lat="44.47561" lon="6.04944">
        <ele>738.42993164062</ele>
        <time>2014-06-08T07:37:43Z</time>
      </trkpt>
      <trkpt lat="44.47517" lon="6.04996">
        <ele>736.02661132812</ele>
        <time>2014-06-08T07:37:48Z</time>
      </trkpt>
      <trkpt lat="44.4751" lon="6.05006">
        <ele>735.0654296875</ele>
        <time>2014-06-08T07:37:49Z</time>
      </trkpt>
      <trkpt lat="44.47475" lon="6.05022">
        <ele>732.18139648438</ele>
        <time>2014-06-08T07:37:53Z</time>
      </trkpt>
      <trkpt lat="44.47459" lon="6.04996">
        <ele>731.21997070312</ele>
        <time>2014-06-08T07:37:56Z</time>
      </trkpt>
      <trkpt lat="44.47452" lon="6.04973">
        <ele>730.25854492188</ele>
        <time>2014-06-08T07:37:58Z</time>
      </trkpt>
      <trkpt lat="44.4742" lon="6.04939">
        <ele>727.37475585938</ele>
        <time>2014-06-08T07:38:02Z</time>
      </trkpt>
      <trkpt lat="44.47376" lon="6.04922">
        <ele>724.97143554688</ele>
        <time>2014-06-08T07:38:06Z</time>
      </trkpt>
      <trkpt lat="44.47306" lon="6.04907">
        <ele>722.08740234375</ele>
        <time>2014-06-08T07:38:12Z</time>
      </trkpt>
      <trkpt lat="44.47215" lon="6.04909">
        <ele>717.76147460938</ele>
        <time>2014-06-08T07:38:20Z</time>
      </trkpt>
      <trkpt lat="44.47203" lon="6.04908">
        <ele>717.76147460938</ele>
        <time>2014-06-08T07:38:21Z</time>
      </trkpt>
      <trkpt lat="44.47114" lon="6.04912">
        <ele>713.916015625</ele>
        <time>2014-06-08T07:38:29Z</time>
      </trkpt>
      <trkpt lat="44.47092" lon="6.04917">
        <ele>712.95483398438</ele>
        <time>2014-06-08T07:38:31Z</time>
      </trkpt>
      <trkpt lat="44.4705" lon="6.04938">
        <ele>711.51293945312</ele>
        <time>2014-06-08T07:38:35Z</time>
      </trkpt>
      <trkpt lat="44.46989" lon="6.04981">
        <ele>707.66772460938</ele>
        <time>2014-06-08T07:38:41Z</time>
      </trkpt>
      <trkpt lat="44.46979" lon="6.04988">
        <ele>706.2255859375</ele>
        <time>2014-06-08T07:38:42Z</time>
      </trkpt>
      <trkpt lat="44.46938" lon="6.04998">
        <ele>703.341796875</ele>
        <time>2014-06-08T07:38:46Z</time>
      </trkpt>
      <trkpt lat="44.46916" lon="6.04994">
        <ele>702.38037109375</ele>
        <time>2014-06-08T07:38:48Z</time>
      </trkpt>
      <trkpt lat="44.46895" lon="6.04987">
        <ele>700.9384765625</ele>
        <time>2014-06-08T07:38:50Z</time>
      </trkpt>
      <trkpt lat="44.46869" lon="6.04944">
        <ele>696.61254882812</ele>
        <time>2014-06-08T07:38:55Z</time>
      </trkpt>
      <trkpt lat="44.46882" lon="6.04907">
        <ele>694.68969726562</ele>
        <time>2014-06-08T07:38:58Z</time>
      </trkpt>
      <trkpt lat="44.46899" lon="6.04892">
        <ele>692.76733398438</ele>
        <time>2014-06-08T07:39:00Z</time>
      </trkpt>
      <trkpt lat="44.46915" lon="6.04873">
        <ele>690.36401367188</ele>
        <time>2014-06-08T07:39:03Z</time>
      </trkpt>
      <trkpt lat="44.46898" lon="6.0486">
        <ele>687.96069335938</ele>
        <time>2014-06-08T07:39:07Z</time>
      </trkpt>
      <trkpt lat="44.4689" lon="6.04863">
        <ele>687.96069335938</ele>
        <time>2014-06-08T07:39:08Z</time>
      </trkpt>
      <trkpt lat="44.46829" lon="6.04898">
        <ele>684.59619140625</ele>
        <time>2014-06-08T07:39:15Z</time>
      </trkpt>
      <trkpt lat="44.46803" lon="6.04914">
        <ele>682.67333984375</ele>
        <time>2014-06-08T07:39:18Z</time>
      </trkpt>
      <trkpt lat="44.46791" lon="6.04958">
        <ele>679.78930664062</ele>
        <time>2014-06-08T07:39:23Z</time>
      </trkpt>
      <trkpt lat="44.46795" lon="6.04968">
        <ele>679.30859375</ele>
        <time>2014-06-08T07:39:24Z</time>
      </trkpt>
      <trkpt lat="44.46846" lon="6.05058">
        <ele>675.46337890625</ele>
        <time>2014-06-08T07:39:32Z</time>
      </trkpt>
      <trkpt lat="44.46867" lon="6.05099">
        <ele>673.06030273438</ele>
        <time>2014-06-08T07:39:35Z</time>
      </trkpt>
      <trkpt lat="44.46878" lon="6.05127">
        <ele>671.1376953125</ele>
        <time>2014-06-08T07:39:37Z</time>
      </trkpt>
      <trkpt lat="44.46889" lon="6.05168">
        <ele>669.21508789062</ele>
        <time>2014-06-08T07:39:40Z</time>
      </trkpt>
      <trkpt lat="44.46902" lon="6.05198">
        <ele>666.33081054688</ele>
        <time>2014-06-08T07:39:43Z</time>
      </trkpt>
      <trkpt lat="44.46888" lon="6.0523">
        <ele>663.92749023438</ele>
        <time>2014-06-08T07:39:49Z</time>
      </trkpt>
      <trkpt lat="44.46876" lon="6.05234">
        <ele>663.44702148438</ele>
        <time>2014-06-08T07:39:51Z</time>
      </trkpt>
      <trkpt lat="44.46826" lon="6.05235">
        <ele>661.04370117188</ele>
        <time>2014-06-08T07:39:57Z</time>
      </trkpt>
      <trkpt lat="44.46807" lon="6.05239">
        <ele>660.08227539062</ele>
        <time>2014-06-08T07:39:59Z</time>
      </trkpt>
      <trkpt lat="44.4678" lon="6.05259">
        <ele>658.15991210938</ele>
        <time>2014-06-08T07:40:02Z</time>
      </trkpt>
      <trkpt lat="44.46764" lon="6.05278">
        <ele>657.19848632812</ele>
        <time>2014-06-08T07:40:04Z</time>
      </trkpt>
      <trkpt lat="44.46721" lon="6.05329">
        <ele>653.833984375</ele>
        <time>2014-06-08T07:40:09Z</time>
      </trkpt>
      <trkpt lat="44.46675" lon="6.0538">
        <ele>649.02709960938</ele>
        <time>2014-06-08T07:40:14Z</time>
      </trkpt>
      <trkpt lat="44.46667" lon="6.05389">
        <ele>648.06591796875</ele>
        <time>2014-06-08T07:40:15Z</time>
      </trkpt>
      <trkpt lat="44.4662" lon="6.05401">
        <ele>644.220703125</ele>
        <time>2014-06-08T07:40:20Z</time>
      </trkpt>
      <trkpt lat="44.466" lon="6.05394">
        <ele>643.25927734375</ele>
        <time>2014-06-08T07:40:22Z</time>
      </trkpt>
      <trkpt lat="44.46559" lon="6.054">
        <ele>640.85595703125</ele>
        <time>2014-06-08T07:40:26Z</time>
      </trkpt>
      <trkpt lat="44.46498" lon="6.05435">
        <ele>637.0107421875</ele>
        <time>2014-06-08T07:40:32Z</time>
      </trkpt>
      <trkpt lat="44.46489" lon="6.05441">
        <ele>636.04956054688</ele>
        <time>2014-06-08T07:40:33Z</time>
      </trkpt>
      <trkpt lat="44.46448" lon="6.05438">
        <ele>632.68481445312</ele>
        <time>2014-06-08T07:40:38Z</time>
      </trkpt>
      <trkpt lat="44.46438" lon="6.05418">
        <ele>631.72338867188</ele>
        <time>2014-06-08T07:40:40Z</time>
      </trkpt>
      <trkpt lat="44.4642" lon="6.05361">
        <ele>630.28149414062</ele>
        <time>2014-06-08T07:40:45Z</time>
      </trkpt>
      <trkpt lat="44.46391" lon="6.05272">
        <ele>626.9169921875</ele>
        <time>2014-06-08T07:40:53Z</time>
      </trkpt>
      <trkpt lat="44.46391" lon="6.05232">
        <ele>626.43627929688</ele>
        <time>2014-06-08T07:41:03Z</time>
      </trkpt>
      <trkpt lat="44.464" lon="6.05161">
        <ele>625.95556640625</ele>
        <time>2014-06-08T07:41:18Z</time>
      </trkpt>
      <trkpt lat="44.46409" lon="6.05015">
        <ele>624.99438476562</ele>
        <time>2014-06-08T07:41:39Z</time>
      </trkpt>
      <trkpt lat="44.46411" lon="6.04859">
        <ele>624.99438476562</ele>
        <time>2014-06-08T07:41:59Z</time>
      </trkpt>
      <trkpt lat="44.46397" lon="6.04695">
        <ele>625.47485351562</ele>
        <time>2014-06-08T07:42:21Z</time>
      </trkpt>
      <trkpt lat="44.46362" lon="6.04537">
        <ele>627.39770507812</ele>
        <time>2014-06-08T07:42:43Z</time>
      </trkpt>
      <trkpt lat="44.46327" lon="6.04408">
        <ele>626.43627929688</ele>
        <time>2014-06-08T07:43:00Z</time>
      </trkpt>
      <trkpt lat="44.46279" lon="6.04314">
        <ele>623.07177734375</ele>
        <time>2014-06-08T07:43:11Z</time>
      </trkpt>
      <trkpt lat="44.46217" lon="6.04147">
        <ele>620.66845703125</ele>
        <time>2014-06-08T07:43:29Z</time>
      </trkpt>
      <trkpt lat="44.46189" lon="6.04001">
        <ele>618.74560546875</ele>
        <time>2014-06-08T07:43:44Z</time>
      </trkpt>
      <trkpt lat="44.46123" lon="6.03772">
        <ele>616.34228515625</ele>
        <time>2014-06-08T07:44:09Z</time>
      </trkpt>
      <trkpt lat="44.46097" lon="6.03669">
        <ele>615.86181640625</ele>
        <time>2014-06-08T07:44:20Z</time>
      </trkpt>
      <trkpt lat="44.46082" lon="6.03645">
        <ele>615.86181640625</ele>
        <time>2014-06-08T07:44:24Z</time>
      </trkpt>
      <trkpt lat="44.4603" lon="6.03611">
        <ele>612.97778320312</ele>
        <time>2014-06-08T07:44:32Z</time>
      </trkpt>
      <trkpt lat="44.45969" lon="6.03569">
        <ele>610.57446289062</ele>
        <time>2014-06-08T07:44:40Z</time>
      </trkpt>
      <trkpt lat="44.45946" lon="6.03527">
        <ele>609.61328125</ele>
        <time>2014-06-08T07:44:45Z</time>
      </trkpt>
      <trkpt lat="44.45942" lon="6.03508">
        <ele>610.09375</ele>
        <time>2014-06-08T07:44:47Z</time>
      </trkpt>
      <trkpt lat="44.45915" lon="6.03472">
        <ele>609.61328125</ele>
        <time>2014-06-08T07:44:53Z</time>
      </trkpt>
      <trkpt lat="44.45772" lon="6.03448">
        <ele>607.2099609375</ele>
        <time>2014-06-08T07:45:16Z</time>
      </trkpt>
      <trkpt lat="44.45747" lon="6.03423">
        <ele>606.72924804688</ele>
        <time>2014-06-08T07:45:21Z</time>
      </trkpt>
      <trkpt lat="44.45738" lon="6.03385">
        <ele>606.72924804688</ele>
        <time>2014-06-08T07:45:26Z</time>
      </trkpt>
      <trkpt lat="44.4574" lon="6.03361">
        <ele>607.2099609375</ele>
        <time>2014-06-08T07:45:30Z</time>
      </trkpt>
      <trkpt lat="44.45743" lon="6.03348">
        <ele>607.2099609375</ele>
        <time>2014-06-08T07:45:32Z</time>
      </trkpt>
      <trkpt lat="44.45722" lon="6.03316">
        <ele>606.72924804688</ele>
        <time>2014-06-08T07:45:38Z</time>
      </trkpt>
      <trkpt lat="44.45701" lon="6.03275">
        <ele>606.72924804688</ele>
        <time>2014-06-08T07:45:44Z</time>
      </trkpt>
      <trkpt lat="44.45695" lon="6.03223">
        <ele>607.69067382812</ele>
        <time>2014-06-08T07:45:51Z</time>
      </trkpt>
      <trkpt lat="44.45688" lon="6.03193">
        <ele>607.2099609375</ele>
        <time>2014-06-08T07:45:55Z</time>
      </trkpt>
      <trkpt lat="44.45624" lon="6.03044">
        <ele>605.76806640625</ele>
        <time>2014-06-08T07:46:14Z</time>
      </trkpt>
      <trkpt lat="44.45554" lon="6.02936">
        <ele>605.76806640625</ele>
        <time>2014-06-08T07:46:31Z</time>
      </trkpt>
      <trkpt lat="44.4549" lon="6.02811">
        <ele>606.24853515625</ele>
        <time>2014-06-08T07:46:50Z</time>
      </trkpt>
      <trkpt lat="44.45399" lon="6.02654">
        <ele>608.17138671875</ele>
        <time>2014-06-08T07:47:17Z</time>
      </trkpt>
      <trkpt lat="44.45355" lon="6.02535">
        <ele>610.57446289062</ele>
        <time>2014-06-08T07:47:36Z</time>
      </trkpt>
      <trkpt lat="44.45354" lon="6.02413">
        <ele>611.53588867188</ele>
        <time>2014-06-08T07:47:53Z</time>
      </trkpt>
      <trkpt lat="44.45372" lon="6.02271">
        <ele>613.93896484375</ele>
        <time>2014-06-08T07:48:14Z</time>
      </trkpt>
      <trkpt lat="44.45392" lon="6.02236">
        <ele>615.38110351562</ele>
        <time>2014-06-08T07:48:24Z</time>
      </trkpt>
      <trkpt lat="44.45443" lon="6.02204">
        <ele>617.7841796875</ele>
        <time>2014-06-08T07:48:40Z</time>
      </trkpt>
      <trkpt lat="44.45435" lon="6.02154">
        <ele>619.22631835938</ele>
        <time>2014-06-08T07:48:53Z</time>
      </trkpt>
      <trkpt lat="44.45421" lon="6.02074">
        <ele>618.26489257812</ele>
        <time>2014-06-08T07:49:06Z</time>
      </trkpt>
      <trkpt lat="44.45405" lon="6.01998">
        <ele>617.7841796875</ele>
        <time>2014-06-08T07:49:17Z</time>
      </trkpt>
      <trkpt lat="44.45388" lon="6.01895">
        <ele>620.66845703125</ele>
        <time>2014-06-08T07:49:35Z</time>
      </trkpt>
      <trkpt lat="44.45376" lon="6.0183">
        <ele>624.03295898438</ele>
        <time>2014-06-08T07:49:49Z</time>
      </trkpt>
      <trkpt lat="44.45364" lon="6.01768">
        <ele>627.39770507812</ele>
        <time>2014-06-08T07:50:03Z</time>
      </trkpt>
      <trkpt lat="44.45354" lon="6.01708">
        <ele>630.28149414062</ele>
        <time>2014-06-08T07:50:18Z</time>
      </trkpt>
      <trkpt lat="44.45368" lon="6.01641">
        <ele>633.16528320312</ele>
        <time>2014-06-08T07:50:35Z</time>
      </trkpt>
      <trkpt lat="44.45386" lon="6.01578">
        <ele>635.56860351562</ele>
        <time>2014-06-08T07:50:50Z</time>
      </trkpt>
      <trkpt lat="44.4541" lon="6.01532">
        <ele>638.93359375</ele>
        <time>2014-06-08T07:51:04Z</time>
      </trkpt>
      <trkpt lat="44.45438" lon="6.01496">
        <ele>641.8173828125</ele>
        <time>2014-06-08T07:51:17Z</time>
      </trkpt>
      <trkpt lat="44.45472" lon="6.01472">
        <ele>645.18188476562</ele>
        <time>2014-06-08T07:51:30Z</time>
      </trkpt>
      <trkpt lat="44.45517" lon="6.01439">
        <ele>648.54638671875</ele>
        <time>2014-06-08T07:51:47Z</time>
      </trkpt>
      <trkpt lat="44.45561" lon="6.01395">
        <ele>651.9111328125</ele>
        <time>2014-06-08T07:52:05Z</time>
      </trkpt>
      <trkpt lat="44.45585" lon="6.01352">
        <ele>654.79516601562</ele>
        <time>2014-06-08T07:52:19Z</time>
      </trkpt>
      <trkpt lat="44.456" lon="6.01326">
        <ele>656.7177734375</ele>
        <time>2014-06-08T07:52:28Z</time>
      </trkpt>
      <trkpt lat="44.45586" lon="6.0131">
        <ele>659.12109375</ele>
        <time>2014-06-08T07:52:38Z</time>
      </trkpt>
      <trkpt lat="44.4554" lon="6.0131">
        <ele>662.48559570312</ele>
        <time>2014-06-08T07:52:55Z</time>
      </trkpt>
      <trkpt lat="44.45508" lon="6.01312">
        <ele>665.85034179688</ele>
        <time>2014-06-08T07:53:08Z</time>
      </trkpt>
      <trkpt lat="44.4547" lon="6.01312">
        <ele>669.21508789062</ele>
        <time>2014-06-08T07:53:22Z</time>
      </trkpt>
      <trkpt lat="44.45454" lon="6.01314">
        <ele>670.17626953125</ele>
        <time>2014-06-08T07:53:29Z</time>
      </trkpt>
      <trkpt lat="44.45456" lon="6.01294">
        <ele>672.09887695312</ele>
        <time>2014-06-08T07:53:36Z</time>
      </trkpt>
      <trkpt lat="44.45495" lon="6.0126">
        <ele>675.46337890625</ele>
        <time>2014-06-08T07:53:53Z</time>
      </trkpt>
      <trkpt lat="44.45532" lon="6.01237">
        <ele>678.34741210938</ele>
        <time>2014-06-08T07:54:08Z</time>
      </trkpt>
      <trkpt lat="44.45561" lon="6.0122">
        <ele>681.7119140625</ele>
        <time>2014-06-08T07:54:20Z</time>
      </trkpt>
      <trkpt lat="44.45585" lon="6.01183">
        <ele>684.59619140625</ele>
        <time>2014-06-08T07:54:35Z</time>
      </trkpt>
      <trkpt lat="44.45603" lon="6.01132">
        <ele>687.96069335938</ele>
        <time>2014-06-08T07:54:51Z</time>
      </trkpt>
      <trkpt lat="44.45609" lon="6.01112">
        <ele>688.92211914062</ele>
        <time>2014-06-08T07:54:57Z</time>
      </trkpt>
      <trkpt lat="44.45599" lon="6.01105">
        <ele>690.36401367188</ele>
        <time>2014-06-08T07:55:02Z</time>
      </trkpt>
      <trkpt lat="44.45557" lon="6.01094">
        <ele>693.728515625</ele>
        <time>2014-06-08T07:55:18Z</time>
      </trkpt>
      <trkpt lat="44.45525" lon="6.01082">
        <ele>696.61254882812</ele>
        <time>2014-06-08T07:55:31Z</time>
      </trkpt>
      <trkpt lat="44.45494" lon="6.01061">
        <ele>699.97705078125</ele>
        <time>2014-06-08T07:55:45Z</time>
      </trkpt>
      <trkpt lat="44.45499" lon="6.01013">
        <ele>702.86108398438</ele>
        <time>2014-06-08T07:55:58Z</time>
      </trkpt>
      <trkpt lat="44.45522" lon="6.00984">
        <ele>705.7451171875</ele>
        <time>2014-06-08T07:56:10Z</time>
      </trkpt>
      <trkpt lat="44.45559" lon="6.00945">
        <ele>709.10961914062</ele>
        <time>2014-06-08T07:56:26Z</time>
      </trkpt>
      <trkpt lat="44.45594" lon="6.00911">
        <ele>711.99365234375</ele>
        <time>2014-06-08T07:56:41Z</time>
      </trkpt>
      <trkpt lat="44.45624" lon="6.00871">
        <ele>714.87744140625</ele>
        <time>2014-06-08T07:56:56Z</time>
      </trkpt>
      <trkpt lat="44.45648" lon="6.00821">
        <ele>718.2421875</ele>
        <time>2014-06-08T07:57:11Z</time>
      </trkpt>
      <trkpt lat="44.45685" lon="6.00815">
        <ele>721.12622070312</ele>
        <time>2014-06-08T07:57:25Z</time>
      </trkpt>
      <trkpt lat="44.45727" lon="6.00816">
        <ele>724.01000976562</ele>
        <time>2014-06-08T07:57:39Z</time>
      </trkpt>
      <trkpt lat="44.45756" lon="6.00827">
        <ele>725.9326171875</ele>
        <time>2014-06-08T07:57:49Z</time>
      </trkpt>
      <trkpt lat="44.45755" lon="6.0081">
        <ele>726.89404296875</ele>
        <time>2014-06-08T07:57:56Z</time>
      </trkpt>
      <trkpt lat="44.45752" lon="6.00809">
        <ele>726.89404296875</ele>
        <time>2014-06-08T07:57:57Z</time>
      </trkpt>
      <trkpt lat="44.45697" lon="6.0079">
        <ele>729.77783203125</ele>
        <time>2014-06-08T07:58:14Z</time>
      </trkpt>
      <trkpt lat="44.45645" lon="6.00766">
        <ele>733.142578125</ele>
        <time>2014-06-08T07:58:30Z</time>
      </trkpt>
      <trkpt lat="44.45603" lon="6.00744">
        <ele>736.02661132812</ele>
        <time>2014-06-08T07:58:44Z</time>
      </trkpt>
      <trkpt lat="44.456" lon="6.00705">
        <ele>738.91064453125</ele>
        <time>2014-06-08T07:58:54Z</time>
      </trkpt>
      <trkpt lat="44.45627" lon="6.00667">
        <ele>742.27514648438</ele>
        <time>2014-06-08T07:59:08Z</time>
      </trkpt>
      <trkpt lat="44.45654" lon="6.00637">
        <ele>745.6396484375</ele>
        <time>2014-06-08T07:59:22Z</time>
      </trkpt>
      <trkpt lat="44.45661" lon="6.00629">
        <ele>747.08154296875</ele>
        <time>2014-06-08T07:59:26Z</time>
      </trkpt>
      <trkpt lat="44.45672" lon="6.00633">
        <ele>748.52368164062</ele>
        <time>2014-06-08T07:59:31Z</time>
      </trkpt>
      <trkpt lat="44.45688" lon="6.00676">
        <ele>751.88842773438</ele>
        <time>2014-06-08T07:59:44Z</time>
      </trkpt>
      <trkpt lat="44.45713" lon="6.00692">
        <ele>755.2529296875</ele>
        <time>2014-06-08T07:59:57Z</time>
      </trkpt>
      <trkpt lat="44.45739" lon="6.00673">
        <ele>758.13696289062</ele>
        <time>2014-06-08T08:00:10Z</time>
      </trkpt>
      <trkpt lat="44.4576" lon="6.00647">
        <ele>761.50146484375</ele>
        <time>2014-06-08T08:00:22Z</time>
      </trkpt>
      <trkpt lat="44.45778" lon="6.00633">
        <ele>763.42407226562</ele>
        <time>2014-06-08T08:00:31Z</time>
      </trkpt>
      <trkpt lat="44.45782" lon="6.00628">
        <ele>764.38549804688</ele>
        <time>2014-06-08T08:00:34Z</time>
      </trkpt>
      <trkpt lat="44.45779" lon="6.00613">
        <ele>766.30810546875</ele>
        <time>2014-06-08T08:00:40Z</time>
      </trkpt>
      <trkpt lat="44.45747" lon="6.00595">
        <ele>769.6728515625</ele>
        <time>2014-06-08T08:00:54Z</time>
      </trkpt>
      <trkpt lat="44.4572" lon="6.00565">
        <ele>772.556640625</ele>
        <time>2014-06-08T08:01:07Z</time>
      </trkpt>
      <trkpt lat="44.45717" lon="6.00556">
        <ele>773.03735351562</ele>
        <time>2014-06-08T08:01:10Z</time>
      </trkpt>
      <trkpt lat="44.45726" lon="6.00545">
        <ele>774.9599609375</ele>
        <time>2014-06-08T08:01:15Z</time>
      </trkpt>
      <trkpt lat="44.45759" lon="6.00528">
        <ele>778.32446289062</ele>
        <time>2014-06-08T08:01:29Z</time>
      </trkpt>
      <trkpt lat="44.45763" lon="6.00525">
        <ele>778.80517578125</ele>
        <time>2014-06-08T08:01:31Z</time>
      </trkpt>
      <trkpt lat="44.45792" lon="6.00492">
        <ele>782.169921875</ele>
        <time>2014-06-08T08:01:46Z</time>
      </trkpt>
      <trkpt lat="44.45817" lon="6.00462">
        <ele>785.05395507812</ele>
        <time>2014-06-08T08:01:59Z</time>
      </trkpt>
      <trkpt lat="44.45838" lon="6.00428">
        <ele>787.93774414062</ele>
        <time>2014-06-08T08:02:12Z</time>
      </trkpt>
      <trkpt lat="44.45833" lon="6.00411">
        <ele>789.8603515625</ele>
        <time>2014-06-08T08:02:19Z</time>
      </trkpt>
      <trkpt lat="44.458" lon="6.00402">
        <ele>793.22485351562</ele>
        <time>2014-06-08T08:02:33Z</time>
      </trkpt>
      <trkpt lat="44.45771" lon="6.00391">
        <ele>796.10913085938</ele>
        <time>2014-06-08T08:02:46Z</time>
      </trkpt>
      <trkpt lat="44.45766" lon="6.00365">
        <ele>798.51220703125</ele>
        <time>2014-06-08T08:02:56Z</time>
      </trkpt>
      <trkpt lat="44.45767" lon="6.00351">
        <ele>799.4736328125</ele>
        <time>2014-06-08T08:03:01Z</time>
      </trkpt>
      <trkpt lat="44.45769" lon="6.0034">
        <ele>800.91552734375</ele>
        <time>2014-06-08T08:03:05Z</time>
      </trkpt>
      <trkpt lat="44.45775" lon="6.00326">
        <ele>802.357421875</ele>
        <time>2014-06-08T08:03:10Z</time>
      </trkpt>
      <trkpt lat="44.4579" lon="6.00313">
        <ele>804.7607421875</ele>
        <time>2014-06-08T08:03:20Z</time>
      </trkpt>
      <trkpt lat="44.45802" lon="6.00317">
        <ele>805.24145507812</ele>
        <time>2014-06-08T08:03:26Z</time>
      </trkpt>
      <trkpt lat="44.45806" lon="6.00324">
        <ele>805.24145507812</ele>
        <time>2014-06-08T08:03:30Z</time>
      </trkpt>
      <trkpt lat="44.45808" lon="6.00328">
        <ele>805.24145507812</ele>
        <time>2014-06-08T08:03:32Z</time>
      </trkpt>
      <trkpt lat="44.4581" lon="6.00329">
        <ele>805.24145507812</ele>
        <time>2014-06-08T08:03:49Z</time>
      </trkpt>
      <trkpt lat="44.45811" lon="6.00328">
        <ele>807.64477539062</ele>
        <time>2014-06-08T08:13:35Z</time>
      </trkpt>
      <trkpt lat="44.45811" lon="6.00326">
        <ele>808.12548828125</ele>
        <time>2014-06-08T08:14:10Z</time>
      </trkpt>
      <trkpt lat="44.45814" lon="6.00321">
        <ele>808.12548828125</ele>
        <time>2014-06-08T08:14:14Z</time>
      </trkpt>
      <trkpt lat="44.45848" lon="6.0028">
        <ele>808.12548828125</ele>
        <time>2014-06-08T08:14:28Z</time>
      </trkpt>
      <trkpt lat="44.45904" lon="6.00216">
        <ele>807.64477539062</ele>
        <time>2014-06-08T08:14:46Z</time>
      </trkpt>
      <trkpt lat="44.45933" lon="6.00191">
        <ele>807.64477539062</ele>
        <time>2014-06-08T08:14:53Z</time>
      </trkpt>
      <trkpt lat="44.45949" lon="6.00175">
        <ele>807.1640625</ele>
        <time>2014-06-08T08:14:57Z</time>
      </trkpt>
      <trkpt lat="44.45989" lon="6.00104">
        <ele>809.5673828125</ele>
        <time>2014-06-08T08:15:14Z</time>
      </trkpt>
      <trkpt lat="44.46013" lon="6.00063">
        <ele>812.45141601562</ele>
        <time>2014-06-08T08:15:27Z</time>
      </trkpt>
      <trkpt lat="44.46029" lon="6.00032">
        <ele>815.81616210938</ele>
        <time>2014-06-08T08:15:37Z</time>
      </trkpt>
      <trkpt lat="44.46043" lon="6.00004">
        <ele>818.69995117188</ele>
        <time>2014-06-08T08:15:46Z</time>
      </trkpt>
      <trkpt lat="44.46061" lon="5.99968">
        <ele>822.064453125</ele>
        <time>2014-06-08T08:15:58Z</time>
      </trkpt>
      <trkpt lat="44.46078" lon="5.99935">
        <ele>824.94848632812</ele>
        <time>2014-06-08T08:16:09Z</time>
      </trkpt>
      <trkpt lat="44.46099" lon="5.99904">
        <ele>827.83227539062</ele>
        <time>2014-06-08T08:16:21Z</time>
      </trkpt>
      <trkpt lat="44.46121" lon="5.9988">
        <ele>831.197265625</ele>
        <time>2014-06-08T08:16:33Z</time>
      </trkpt>
      <trkpt lat="44.46149" lon="5.99858">
        <ele>834.0810546875</ele>
        <time>2014-06-08T08:16:47Z</time>
      </trkpt>
      <trkpt lat="44.46172" lon="5.9983">
        <ele>837.44555664062</ele>
        <time>2014-06-08T08:16:59Z</time>
      </trkpt>
      <trkpt lat="44.4619" lon="5.99812">
        <ele>840.32958984375</ele>
        <time>2014-06-08T08:17:09Z</time>
      </trkpt>
      <trkpt lat="44.46214" lon="5.99786">
        <ele>843.21337890625</ele>
        <time>2014-06-08T08:17:22Z</time>
      </trkpt>
      <trkpt lat="44.46236" lon="5.99754">
        <ele>846.09765625</ele>
        <time>2014-06-08T08:17:37Z</time>
      </trkpt>
      <trkpt lat="44.46228" lon="5.99746">
        <ele>847.53955078125</ele>
        <time>2014-06-08T08:17:42Z</time>
      </trkpt>
      <trkpt lat="44.46186" lon="5.99747">
        <ele>850.90405273438</ele>
        <time>2014-06-08T08:18:01Z</time>
      </trkpt>
      <trkpt lat="44.46135" lon="5.99746">
        <ele>854.26879882812</ele>
        <time>2014-06-08T08:18:21Z</time>
      </trkpt>
      <trkpt lat="44.4608" lon="5.99757">
        <ele>857.15258789062</ele>
        <time>2014-06-08T08:18:41Z</time>
      </trkpt>
      <trkpt lat="44.4603" lon="5.99741">
        <ele>860.51733398438</ele>
        <time>2014-06-08T08:19:00Z</time>
      </trkpt>
      <trkpt lat="44.4598" lon="5.99718">
        <ele>863.4013671875</ele>
        <time>2014-06-08T08:19:19Z</time>
      </trkpt>
      <trkpt lat="44.45932" lon="5.99704">
        <ele>866.28515625</ele>
        <time>2014-06-08T08:19:37Z</time>
      </trkpt>
      <trkpt lat="44.45887" lon="5.99704">
        <ele>869.64990234375</ele>
        <time>2014-06-08T08:19:53Z</time>
      </trkpt>
      <trkpt lat="44.45847" lon="5.9971">
        <ele>872.53369140625</ele>
        <time>2014-06-08T08:20:07Z</time>
      </trkpt>
      <trkpt lat="44.45803" lon="5.99741">
        <ele>875.89819335938</ele>
        <time>2014-06-08T08:20:24Z</time>
      </trkpt>
      <trkpt lat="44.45786" lon="5.99764">
        <ele>876.85986328125</ele>
        <time>2014-06-08T08:20:32Z</time>
      </trkpt>
      <trkpt lat="44.45781" lon="5.99746">
        <ele>878.3017578125</ele>
        <time>2014-06-08T08:20:39Z</time>
      </trkpt>
      <trkpt lat="44.45801" lon="5.99698">
        <ele>881.66625976562</ele>
        <time>2014-06-08T08:20:54Z</time>
      </trkpt>
      <trkpt lat="44.45826" lon="5.9966">
        <ele>884.55029296875</ele>
        <time>2014-06-08T08:21:08Z</time>
      </trkpt>
      <trkpt lat="44.45867" lon="5.99624">
        <ele>887.91479492188</ele>
        <time>2014-06-08T08:21:25Z</time>
      </trkpt>
      <trkpt lat="44.45914" lon="5.99585">
        <ele>890.79858398438</ele>
        <time>2014-06-08T08:21:44Z</time>
      </trkpt>
      <trkpt lat="44.45973" lon="5.99549">
        <ele>894.16357421875</ele>
        <time>2014-06-08T08:22:04Z</time>
      </trkpt>
      <trkpt lat="44.45984" lon="5.9952">
        <ele>895.60546875</ele>
        <time>2014-06-08T08:22:14Z</time>
      </trkpt>
      <trkpt lat="44.45964" lon="5.99471">
        <ele>898.96997070312</ele>
        <time>2014-06-08T08:22:29Z</time>
      </trkpt>
      <trkpt lat="44.4594" lon="5.99433">
        <ele>902.33447265625</ele>
        <time>2014-06-08T08:22:43Z</time>
      </trkpt>
      <trkpt lat="44.45914" lon="5.99423">
        <ele>905.69921875</ele>
        <time>2014-06-08T08:22:55Z</time>
      </trkpt>
      <trkpt lat="44.45886" lon="5.99412">
        <ele>909.06396484375</ele>
        <time>2014-06-08T08:23:07Z</time>
      </trkpt>
      <trkpt lat="44.45884" lon="5.99411">
        <ele>909.54467773438</ele>
        <time>2014-06-08T08:23:08Z</time>
      </trkpt>
      <trkpt lat="44.45853" lon="5.99392">
        <ele>912.42846679688</ele>
        <time>2014-06-08T08:23:22Z</time>
      </trkpt>
      <trkpt lat="44.45841" lon="5.99369">
        <ele>915.79321289062</ele>
        <time>2014-06-08T08:23:32Z</time>
      </trkpt>
      <trkpt lat="44.45842" lon="5.9935">
        <ele>916.75439453125</ele>
        <time>2014-06-08T08:23:38Z</time>
      </trkpt>
      <trkpt lat="44.45834" lon="5.99299">
        <ele>920.11889648438</ele>
        <time>2014-06-08T08:23:54Z</time>
      </trkpt>
      <trkpt lat="44.45826" lon="5.99245">
        <ele>923.0029296875</ele>
        <time>2014-06-08T08:24:11Z</time>
      </trkpt>
      <trkpt lat="44.45819" lon="5.99194">
        <ele>926.36767578125</ele>
        <time>2014-06-08T08:24:27Z</time>
      </trkpt>
      <trkpt lat="44.45812" lon="5.99141">
        <ele>929.25146484375</ele>
        <time>2014-06-08T08:24:43Z</time>
      </trkpt>
      <trkpt lat="44.45805" lon="5.99094">
        <ele>932.6162109375</ele>
        <time>2014-06-08T08:24:57Z</time>
      </trkpt>
      <trkpt lat="44.45792" lon="5.99048">
        <ele>935.5</ele>
        <time>2014-06-08T08:25:11Z</time>
      </trkpt>
      <trkpt lat="44.45776" lon="5.98993">
        <ele>938.38403320312</ele>
        <time>2014-06-08T08:25:28Z</time>
      </trkpt>
      <trkpt lat="44.45761" lon="5.9894">
        <ele>941.74877929688</ele>
        <time>2014-06-08T08:25:44Z</time>
      </trkpt>
      <trkpt lat="44.45744" lon="5.98891">
        <ele>945.11328125</ele>
        <time>2014-06-08T08:25:59Z</time>
      </trkpt>
      <trkpt lat="44.45735" lon="5.98846">
        <ele>947.99731445312</ele>
        <time>2014-06-08T08:26:13Z</time>
      </trkpt>
      <trkpt lat="44.45729" lon="5.98804">
        <ele>951.36181640625</ele>
        <time>2014-06-08T08:26:26Z</time>
      </trkpt>
      <trkpt lat="44.45714" lon="5.98763">
        <ele>954.24584960938</ele>
        <time>2014-06-08T08:26:40Z</time>
      </trkpt>
      <trkpt lat="44.45692" lon="5.98733">
        <ele>957.61059570312</ele>
        <time>2014-06-08T08:26:53Z</time>
      </trkpt>
      <trkpt lat="44.45668" lon="5.98706">
        <ele>960.49438476562</ele>
        <time>2014-06-08T08:27:06Z</time>
      </trkpt>
      <trkpt lat="44.45651" lon="5.98665">
        <ele>963.85888671875</ele>
        <time>2014-06-08T08:27:21Z</time>
      </trkpt>
      <trkpt lat="44.45631" lon="5.98621">
        <ele>966.74291992188</ele>
        <time>2014-06-08T08:27:37Z</time>
      </trkpt>
      <trkpt lat="44.45608" lon="5.98595">
        <ele>970.107421875</ele>
        <time>2014-06-08T08:27:50Z</time>
      </trkpt>
      <trkpt lat="44.4559" lon="5.98568">
        <ele>973.47241210938</ele>
        <time>2014-06-08T08:28:03Z</time>
      </trkpt>
      <trkpt lat="44.45577" lon="5.98532">
        <ele>976.35620117188</ele>
        <time>2014-06-08T08:28:17Z</time>
      </trkpt>
      <trkpt lat="44.45572" lon="5.98523">
        <ele>977.31762695312</ele>
        <time>2014-06-08T08:28:21Z</time>
      </trkpt>
      <trkpt lat="44.4557" lon="5.98512">
        <ele>978.27880859375</ele>
        <time>2014-06-08T08:28:25Z</time>
      </trkpt>
      <trkpt lat="44.45562" lon="5.98468">
        <ele>981.64331054688</ele>
        <time>2014-06-08T08:28:40Z</time>
      </trkpt>
      <trkpt lat="44.45582" lon="5.98429">
        <ele>985.00805664062</ele>
        <time>2014-06-08T08:28:55Z</time>
      </trkpt>
      <trkpt lat="44.45597" lon="5.98383">
        <ele>988.37280273438</ele>
        <time>2014-06-08T08:29:11Z</time>
      </trkpt>
      <trkpt lat="44.45614" lon="5.98341">
        <ele>991.25659179688</ele>
        <time>2014-06-08T08:29:25Z</time>
      </trkpt>
      <trkpt lat="44.45637" lon="5.98307">
        <ele>994.62109375</ele>
        <time>2014-06-08T08:29:37Z</time>
      </trkpt>
      <trkpt lat="44.45658" lon="5.98268">
        <ele>997.50512695312</ele>
        <time>2014-06-08T08:29:49Z</time>
      </trkpt>
      <trkpt lat="44.45673" lon="5.98226">
        <ele>1000.3891601562</ele>
        <time>2014-06-08T08:30:03Z</time>
      </trkpt>
      <trkpt lat="44.45686" lon="5.98166">
        <ele>1002.3115234375</ele>
        <time>2014-06-08T08:30:20Z</time>
      </trkpt>
      <trkpt lat="44.45693" lon="5.98137">
        <ele>1002.7922363281</ele>
        <time>2014-06-08T08:30:28Z</time>
      </trkpt>
      <trkpt lat="44.45687" lon="5.98128">
        <ele>1003.7536621094</ele>
        <time>2014-06-08T08:30:34Z</time>
      </trkpt>
      <trkpt lat="44.4569" lon="5.98132">
        <ele>1003.2729492188</ele>
        <time>2014-06-08T08:30:46Z</time>
      </trkpt>
      <trkpt lat="44.4569" lon="5.98132">
        <ele>1003.7536621094</ele>
        <time>2014-06-08T08:31:35Z</time>
      </trkpt>
      <trkpt lat="44.45692" lon="5.98132">
        <ele>1003.2729492188</ele>
        <time>2014-06-08T08:32:04Z</time>
      </trkpt>
      <trkpt lat="44.45692" lon="5.98132">
        <ele>1003.7536621094</ele>
        <time>2014-06-08T08:32:26Z</time>
      </trkpt>
      <trkpt lat="44.45696" lon="5.98126">
        <ele>1003.7536621094</ele>
        <time>2014-06-08T08:32:32Z</time>
      </trkpt>
      <trkpt lat="44.45705" lon="5.98116">
        <ele>1003.2729492188</ele>
        <time>2014-06-08T08:32:37Z</time>
      </trkpt>
      <trkpt lat="44.45774" lon="5.9806">
        <ele>1000.8696289062</ele>
        <time>2014-06-08T08:32:51Z</time>
      </trkpt>
      <trkpt lat="44.45785" lon="5.98049">
        <ele>1000.8696289062</ele>
        <time>2014-06-08T08:32:53Z</time>
      </trkpt>
      <trkpt lat="44.45853" lon="5.97912">
        <ele>998.94702148438</ele>
        <time>2014-06-08T08:33:12Z</time>
      </trkpt>
      <trkpt lat="44.45873" lon="5.97868">
        <ele>998.46630859375</ele>
        <time>2014-06-08T08:33:18Z</time>
      </trkpt>
      <trkpt lat="44.45878" lon="5.97833">
        <ele>997.50512695312</ele>
        <time>2014-06-08T08:33:22Z</time>
      </trkpt>
      <trkpt lat="44.45877" lon="5.97788">
        <ele>997.50512695312</ele>
        <time>2014-06-08T08:33:27Z</time>
      </trkpt>
      <trkpt lat="44.45893" lon="5.97737">
        <ele>997.0244140625</ele>
        <time>2014-06-08T08:33:33Z</time>
      </trkpt>
      <trkpt lat="44.45918" lon="5.97703">
        <ele>997.0244140625</ele>
        <time>2014-06-08T08:33:38Z</time>
      </trkpt>
      <trkpt lat="44.45953" lon="5.97685">
        <ele>997.0244140625</ele>
        <time>2014-06-08T08:33:44Z</time>
      </trkpt>
      <trkpt lat="44.45983" lon="5.97669">
        <ele>997.0244140625</ele>
        <time>2014-06-08T08:33:49Z</time>
      </trkpt>
      <trkpt lat="44.46003" lon="5.9763">
        <ele>996.5439453125</ele>
        <time>2014-06-08T08:33:54Z</time>
      </trkpt>
      <trkpt lat="44.46036" lon="5.97516">
        <ele>995.58251953125</ele>
        <time>2014-06-08T08:34:07Z</time>
      </trkpt>
      <trkpt lat="44.46013" lon="5.97458">
        <ele>995.58251953125</ele>
        <time>2014-06-08T08:34:15Z</time>
      </trkpt>
      <trkpt lat="44.45981" lon="5.97444">
        <ele>995.10180664062</ele>
        <time>2014-06-08T08:34:20Z</time>
      </trkpt>
      <trkpt lat="44.45945" lon="5.97385">
        <ele>994.62109375</ele>
        <time>2014-06-08T08:34:28Z</time>
      </trkpt>
      <trkpt lat="44.45955" lon="5.9733">
        <ele>994.140625</ele>
        <time>2014-06-08T08:34:34Z</time>
      </trkpt>
      <trkpt lat="44.45991" lon="5.97236">
        <ele>994.140625</ele>
        <time>2014-06-08T08:34:45Z</time>
      </trkpt>
      <trkpt lat="44.46032" lon="5.97161">
        <ele>993.65991210938</ele>
        <time>2014-06-08T08:34:55Z</time>
      </trkpt>
      <trkpt lat="44.46041" lon="5.97148">
        <ele>993.17919921875</ele>
        <time>2014-06-08T08:34:57Z</time>
      </trkpt>
      <trkpt lat="44.46075" lon="5.97124">
        <ele>993.17919921875</ele>
        <time>2014-06-08T08:35:03Z</time>
      </trkpt>
      <trkpt lat="44.46094" lon="5.97119">
        <ele>992.69873046875</ele>
        <time>2014-06-08T08:35:06Z</time>
      </trkpt>
      <trkpt lat="44.46122" lon="5.97074">
        <ele>992.69873046875</ele>
        <time>2014-06-08T08:35:13Z</time>
      </trkpt>
      <trkpt lat="44.46127" lon="5.97047">
        <ele>992.69873046875</ele>
        <time>2014-06-08T08:35:16Z</time>
      </trkpt>
      <trkpt lat="44.4614" lon="5.97016">
        <ele>991.7373046875</ele>
        <time>2014-06-08T08:35:20Z</time>
      </trkpt>
      <trkpt lat="44.46182" lon="5.96978">
        <ele>991.7373046875</ele>
        <time>2014-06-08T08:35:28Z</time>
      </trkpt>
      <trkpt lat="44.46194" lon="5.96975">
        <ele>992.21801757812</ele>
        <time>2014-06-08T08:35:30Z</time>
      </trkpt>
      <trkpt lat="44.46221" lon="5.96936">
        <ele>992.21801757812</ele>
        <time>2014-06-08T08:35:36Z</time>
      </trkpt>
      <trkpt lat="44.46232" lon="5.9689">
        <ele>991.7373046875</ele>
        <time>2014-06-08T08:35:41Z</time>
      </trkpt>
      <trkpt lat="44.46253" lon="5.96839">
        <ele>991.7373046875</ele>
        <time>2014-06-08T08:35:47Z</time>
      </trkpt>
      <trkpt lat="44.4627" lon="5.96807">
        <ele>991.7373046875</ele>
        <time>2014-06-08T08:35:51Z</time>
      </trkpt>
      <trkpt lat="44.4633" lon="5.96768">
        <ele>990.77587890625</ele>
        <time>2014-06-08T08:36:00Z</time>
      </trkpt>
      <trkpt lat="44.46344" lon="5.96767">
        <ele>990.77587890625</ele>
        <time>2014-06-08T08:36:02Z</time>
      </trkpt>
      <trkpt lat="44.46395" lon="5.96744">
        <ele>990.29541015625</ele>
        <time>2014-06-08T08:36:09Z</time>
      </trkpt>
      <trkpt lat="44.46438" lon="5.96734">
        <ele>990.29541015625</ele>
        <time>2014-06-08T08:36:15Z</time>
      </trkpt>
      <trkpt lat="44.4646" lon="5.96716">
        <ele>990.29541015625</ele>
        <time>2014-06-08T08:36:19Z</time>
      </trkpt>
      <trkpt lat="44.46483" lon="5.96683">
        <ele>989.81469726562</ele>
        <time>2014-06-08T08:36:24Z</time>
      </trkpt>
      <trkpt lat="44.4653" lon="5.96663">
        <ele>990.29541015625</ele>
        <time>2014-06-08T08:36:32Z</time>
      </trkpt>
      <trkpt lat="44.46624" lon="5.96705">
        <ele>990.29541015625</ele>
        <time>2014-06-08T08:36:50Z</time>
      </trkpt>
      <trkpt lat="44.46766" lon="5.96768">
        <ele>990.29541015625</ele>
        <time>2014-06-08T08:37:14Z</time>
      </trkpt>
      <trkpt lat="44.46891" lon="5.96823">
        <ele>992.21801757812</ele>
        <time>2014-06-08T08:37:37Z</time>
      </trkpt>
      <trkpt lat="44.46931" lon="5.9684">
        <ele>992.69873046875</ele>
        <time>2014-06-08T08:37:45Z</time>
      </trkpt>
      <trkpt lat="44.46957" lon="5.9684">
        <ele>993.65991210938</ele>
        <time>2014-06-08T08:37:50Z</time>
      </trkpt>
      <trkpt lat="44.47045" lon="5.96804">
        <ele>994.62109375</ele>
        <time>2014-06-08T08:38:07Z</time>
      </trkpt>
      <trkpt lat="44.47124" lon="5.96758">
        <ele>997.50512695312</ele>
        <time>2014-06-08T08:38:24Z</time>
      </trkpt>
      <trkpt lat="44.47184" lon="5.96761">
        <ele>999.90844726562</ele>
        <time>2014-06-08T08:38:39Z</time>
      </trkpt>
      <trkpt lat="44.47243" lon="5.9678">
        <ele>999.427734375</ele>
        <time>2014-06-08T08:38:53Z</time>
      </trkpt>
      <trkpt lat="44.47267" lon="5.9678">
        <ele>998.46630859375</ele>
        <time>2014-06-08T08:38:57Z</time>
      </trkpt>
      <trkpt lat="44.47328" lon="5.9676">
        <ele>1000.8696289062</ele>
        <time>2014-06-08T08:39:10Z</time>
      </trkpt>
      <trkpt lat="44.4738" lon="5.96751">
        <ele>1003.7536621094</ele>
        <time>2014-06-08T08:39:24Z</time>
      </trkpt>
      <trkpt lat="44.47448" lon="5.96754">
        <ele>1006.1569824219</ele>
        <time>2014-06-08T08:39:42Z</time>
      </trkpt>
      <trkpt lat="44.47475" lon="5.96709">
        <ele>1006.1569824219</ele>
        <time>2014-06-08T08:39:53Z</time>
      </trkpt>
      <trkpt lat="44.47477" lon="5.96704">
        <ele>1006.1569824219</ele>
        <time>2014-06-08T08:39:54Z</time>
      </trkpt>
      <trkpt lat="44.47484" lon="5.96695">
        <ele>1006.1569824219</ele>
        <time>2014-06-08T08:39:56Z</time>
      </trkpt>
      <trkpt lat="44.4753" lon="5.96651">
        <ele>1005.6765136719</ele>
        <time>2014-06-08T08:40:08Z</time>
      </trkpt>
      <trkpt lat="44.47543" lon="5.96641">
        <ele>1005.6765136719</ele>
        <time>2014-06-08T08:40:11Z</time>
      </trkpt>
      <trkpt lat="44.47565" lon="5.96647">
        <ele>1005.6765136719</ele>
        <time>2014-06-08T08:40:16Z</time>
      </trkpt>
      <trkpt lat="44.47573" lon="5.96653">
        <ele>1005.6765136719</ele>
        <time>2014-06-08T08:40:18Z</time>
      </trkpt>
      <trkpt lat="44.47576" lon="5.96693">
        <ele>1005.6765136719</ele>
        <time>2014-06-08T08:40:25Z</time>
      </trkpt>
      <trkpt lat="44.47548" lon="5.9676">
        <ele>1007.5991210938</ele>
        <time>2014-06-08T08:40:37Z</time>
      </trkpt>
      <trkpt lat="44.47544" lon="5.96789">
        <ele>1008.5603027344</ele>
        <time>2014-06-08T08:40:42Z</time>
      </trkpt>
      <trkpt lat="44.47545" lon="5.968">
        <ele>1009.041015625</ele>
        <time>2014-06-08T08:40:44Z</time>
      </trkpt>
      <trkpt lat="44.47526" lon="5.96865">
        <ele>1011.9250488281</ele>
        <time>2014-06-08T08:40:57Z</time>
      </trkpt>
      <trkpt lat="44.47496" lon="5.96919">
        <ele>1014.328125</ele>
        <time>2014-06-08T08:41:10Z</time>
      </trkpt>
      <trkpt lat="44.47507" lon="5.9695">
        <ele>1013.8474121094</ele>
        <time>2014-06-08T08:41:16Z</time>
      </trkpt>
      <trkpt lat="44.47542" lon="5.96994">
        <ele>1013.8474121094</ele>
        <time>2014-06-08T08:41:26Z</time>
      </trkpt>
      <trkpt lat="44.47614" lon="5.97068">
        <ele>1013.8474121094</ele>
        <time>2014-06-08T08:41:44Z</time>
      </trkpt>
      <trkpt lat="44.47669" lon="5.97171">
        <ele>1014.8088378906</ele>
        <time>2014-06-08T08:42:02Z</time>
      </trkpt>
      <trkpt lat="44.47704" lon="5.97244">
        <ele>1014.8088378906</ele>
        <time>2014-06-08T08:42:14Z</time>
      </trkpt>
      <trkpt lat="44.47732" lon="5.97279">
        <ele>1014.8088378906</ele>
        <time>2014-06-08T08:42:21Z</time>
      </trkpt>
      <trkpt lat="44.4775" lon="5.97288">
        <ele>1015.2895507812</ele>
        <time>2014-06-08T08:42:25Z</time>
      </trkpt>
      <trkpt lat="44.47774" lon="5.97293">
        <ele>1015.2895507812</ele>
        <time>2014-06-08T08:42:30Z</time>
      </trkpt>
      <trkpt lat="44.4779" lon="5.97334">
        <ele>1015.7702636719</ele>
        <time>2014-06-08T08:42:37Z</time>
      </trkpt>
      <trkpt lat="44.47767" lon="5.97365">
        <ele>1016.7314453125</ele>
        <time>2014-06-08T08:42:43Z</time>
      </trkpt>
      <trkpt lat="44.47739" lon="5.97382">
        <ele>1017.2121582031</ele>
        <time>2014-06-08T08:42:49Z</time>
      </trkpt>
      <trkpt lat="44.47724" lon="5.97415">
        <ele>1017.2121582031</ele>
        <time>2014-06-08T08:42:55Z</time>
      </trkpt>
      <trkpt lat="44.47721" lon="5.97492">
        <ele>1016.7314453125</ele>
        <time>2014-06-08T08:43:05Z</time>
      </trkpt>
      <trkpt lat="44.4772" lon="5.97508">
        <ele>1016.7314453125</ele>
        <time>2014-06-08T08:43:07Z</time>
      </trkpt>
      <trkpt lat="44.47731" lon="5.97546">
        <ele>1015.2895507812</ele>
        <time>2014-06-08T08:43:12Z</time>
      </trkpt>
      <trkpt lat="44.47782" lon="5.97638">
        <ele>1011.9250488281</ele>
        <time>2014-06-08T08:43:24Z</time>
      </trkpt>
      <trkpt lat="44.47796" lon="5.97667">
        <ele>1011.4443359375</ele>
        <time>2014-06-08T08:43:28Z</time>
      </trkpt>
      <trkpt lat="44.47814" lon="5.97683">
        <ele>1010.0021972656</ele>
        <time>2014-06-08T08:43:35Z</time>
      </trkpt>
      <trkpt lat="44.47809" lon="5.9768">
        <ele>1010.0021972656</ele>
        <time>2014-06-08T08:43:43Z</time>
      </trkpt>
      <trkpt lat="44.47809" lon="5.97678">
        <ele>1010.0021972656</ele>
        <time>2014-06-08T08:44:02Z</time>
      </trkpt>
      <trkpt lat="44.47809" lon="5.97676">
        <ele>1010.0021972656</ele>
        <time>2014-06-08T08:44:44Z</time>
      </trkpt>
      <trkpt lat="44.47809" lon="5.97675">
        <ele>1010.4829101562</ele>
        <time>2014-06-08T08:45:13Z</time>
      </trkpt>
      <trkpt lat="44.4781" lon="5.97676">
        <ele>1010.4829101562</ele>
        <time>2014-06-08T08:45:43Z</time>
      </trkpt>
      <trkpt lat="44.47815" lon="5.97684">
        <ele>1010.4829101562</ele>
        <time>2014-06-08T08:45:48Z</time>
      </trkpt>
      <trkpt lat="44.47825" lon="5.97709">
        <ele>1010.4829101562</ele>
        <time>2014-06-08T08:45:55Z</time>
      </trkpt>
      <trkpt lat="44.47888" lon="5.97803">
        <ele>1008.5603027344</ele>
        <time>2014-06-08T08:46:13Z</time>
      </trkpt>
      <trkpt lat="44.47892" lon="5.97809">
        <ele>1008.5603027344</ele>
        <time>2014-06-08T08:46:14Z</time>
      </trkpt>
      <trkpt lat="44.47905" lon="5.97841">
        <ele>1008.0798339844</ele>
        <time>2014-06-08T08:46:19Z</time>
      </trkpt>
      <trkpt lat="44.47927" lon="5.97869">
        <ele>1008.5603027344</ele>
        <time>2014-06-08T08:46:25Z</time>
      </trkpt>
      <trkpt lat="44.47948" lon="5.97898">
        <ele>1009.5217285156</ele>
        <time>2014-06-08T08:46:32Z</time>
      </trkpt>
      <trkpt lat="44.47995" lon="5.97967">
        <ele>1011.9250488281</ele>
        <time>2014-06-08T08:46:51Z</time>
      </trkpt>
      <trkpt lat="44.48032" lon="5.98022">
        <ele>1015.2895507812</ele>
        <time>2014-06-08T08:47:08Z</time>
      </trkpt>
      <trkpt lat="44.48072" lon="5.98079">
        <ele>1018.1733398438</ele>
        <time>2014-06-08T08:47:26Z</time>
      </trkpt>
      <trkpt lat="44.48109" lon="5.98136">
        <ele>1021.5380859375</ele>
        <time>2014-06-08T08:47:43Z</time>
      </trkpt>
      <trkpt lat="44.48143" lon="5.98187">
        <ele>1024.4221191406</ele>
        <time>2014-06-08T08:47:59Z</time>
      </trkpt>
      <trkpt lat="44.48181" lon="5.98254">
        <ele>1027.3061523438</ele>
        <time>2014-06-08T08:48:18Z</time>
      </trkpt>
      <trkpt lat="44.48213" lon="5.98316">
        <ele>1030.6706542969</ele>
        <time>2014-06-08T08:48:36Z</time>
      </trkpt>
      <trkpt lat="44.48243" lon="5.98374">
        <ele>1033.5544433594</ele>
        <time>2014-06-08T08:48:54Z</time>
      </trkpt>
      <trkpt lat="44.48272" lon="5.98429">
        <ele>1036.9191894531</ele>
        <time>2014-06-08T08:49:11Z</time>
      </trkpt>
      <trkpt lat="44.48303" lon="5.98489">
        <ele>1039.8032226562</ele>
        <time>2014-06-08T08:49:29Z</time>
      </trkpt>
      <trkpt lat="44.48345" lon="5.98526">
        <ele>1042.6872558594</ele>
        <time>2014-06-08T08:49:48Z</time>
      </trkpt>
      <trkpt lat="44.48387" lon="5.98518">
        <ele>1043.6484375</ele>
        <time>2014-06-08T08:50:00Z</time>
      </trkpt>
      <trkpt lat="44.48471" lon="5.98498">
        <ele>1043.1677246094</ele>
        <time>2014-06-08T08:50:18Z</time>
      </trkpt>
      <trkpt lat="44.48528" lon="5.98521">
        <ele>1043.1677246094</ele>
        <time>2014-06-08T08:50:29Z</time>
      </trkpt>
      <trkpt lat="44.48578" lon="5.98593">
        <ele>1042.6872558594</ele>
        <time>2014-06-08T08:50:41Z</time>
      </trkpt>
      <trkpt lat="44.48605" lon="5.98609">
        <ele>1042.6872558594</ele>
        <time>2014-06-08T08:50:46Z</time>
      </trkpt>
      <trkpt lat="44.48701" lon="5.98634">
        <ele>1042.6872558594</ele>
        <time>2014-06-08T08:51:01Z</time>
      </trkpt>
      <trkpt lat="44.48812" lon="5.9861">
        <ele>1043.1677246094</ele>
        <time>2014-06-08T08:51:19Z</time>
      </trkpt>
      <trkpt lat="44.48977" lon="5.98571">
        <ele>1043.6484375</ele>
        <time>2014-06-08T08:51:46Z</time>
      </trkpt>
      <trkpt lat="44.49117" lon="5.98537">
        <ele>1042.2065429688</ele>
        <time>2014-06-08T08:52:07Z</time>
      </trkpt>
      <trkpt lat="44.49232" lon="5.98556">
        <ele>1042.2065429688</ele>
        <time>2014-06-08T08:52:24Z</time>
      </trkpt>
      <trkpt lat="44.49362" lon="5.98587">
        <ele>1042.6872558594</ele>
        <time>2014-06-08T08:52:44Z</time>
      </trkpt>
      <trkpt lat="44.49522" lon="5.98637">
        <ele>1042.6872558594</ele>
        <time>2014-06-08T08:53:07Z</time>
      </trkpt>
      <trkpt lat="44.49535" lon="5.98647">
        <ele>1042.6872558594</ele>
        <time>2014-06-08T08:53:09Z</time>
      </trkpt>
      <trkpt lat="44.49584" lon="5.98666">
        <ele>1042.6872558594</ele>
        <time>2014-06-08T08:53:16Z</time>
      </trkpt>
      <trkpt lat="44.4962" lon="5.98722">
        <ele>1043.1677246094</ele>
        <time>2014-06-08T08:53:24Z</time>
      </trkpt>
      <trkpt lat="44.49637" lon="5.9884">
        <ele>1043.1677246094</ele>
        <time>2014-06-08T08:53:36Z</time>
      </trkpt>
      <trkpt lat="44.49642" lon="5.98859">
        <ele>1043.1677246094</ele>
        <time>2014-06-08T08:53:38Z</time>
      </trkpt>
      <trkpt lat="44.49676" lon="5.98924">
        <ele>1043.1677246094</ele>
        <time>2014-06-08T08:53:46Z</time>
      </trkpt>
      <trkpt lat="44.4975" lon="5.98982">
        <ele>1043.1677246094</ele>
        <time>2014-06-08T08:53:58Z</time>
      </trkpt>
      <trkpt lat="44.49782" lon="5.99046">
        <ele>1042.6872558594</ele>
        <time>2014-06-08T08:54:06Z</time>
      </trkpt>
      <trkpt lat="44.49797" lon="5.99197">
        <ele>1043.1677246094</ele>
        <time>2014-06-08T08:54:22Z</time>
      </trkpt>
      <trkpt lat="44.49798" lon="5.99216">
        <ele>1043.1677246094</ele>
        <time>2014-06-08T08:54:24Z</time>
      </trkpt>
      <trkpt lat="44.49772" lon="5.99342">
        <ele>1043.1677246094</ele>
        <time>2014-06-08T08:54:38Z</time>
      </trkpt>
      <trkpt lat="44.49717" lon="5.99418">
        <ele>1043.1677246094</ele>
        <time>2014-06-08T08:54:50Z</time>
      </trkpt>
      <trkpt lat="44.49704" lon="5.9945">
        <ele>1043.1677246094</ele>
        <time>2014-06-08T08:54:54Z</time>
      </trkpt>
      <trkpt lat="44.4971" lon="5.99514">
        <ele>1043.1677246094</ele>
        <time>2014-06-08T08:55:02Z</time>
      </trkpt>
      <trkpt lat="44.49721" lon="5.99524">
        <ele>1043.1677246094</ele>
        <time>2014-06-08T08:55:04Z</time>
      </trkpt>
      <trkpt lat="44.49826" lon="5.9956">
        <ele>1040.2839355469</ele>
        <time>2014-06-08T08:55:18Z</time>
      </trkpt>
      <trkpt lat="44.49918" lon="5.9955">
        <ele>1036.9191894531</ele>
        <time>2014-06-08T08:55:29Z</time>
      </trkpt>
      <trkpt lat="44.50053" lon="5.99506">
        <ele>1034.03515625</ele>
        <time>2014-06-08T08:55:45Z</time>
      </trkpt>
      <trkpt lat="44.50089" lon="5.99492">
        <ele>1033.0737304688</ele>
        <time>2014-06-08T08:55:49Z</time>
      </trkpt>
      <trkpt lat="44.50125" lon="5.9949">
        <ele>1032.1125488281</ele>
        <time>2014-06-08T08:55:53Z</time>
      </trkpt>
      <trkpt lat="44.50233" lon="5.99529">
        <ele>1028.748046875</ele>
        <time>2014-06-08T08:56:06Z</time>
      </trkpt>
      <trkpt lat="44.50287" lon="5.99536">
        <ele>1027.3061523438</ele>
        <time>2014-06-08T08:56:13Z</time>
      </trkpt>
      <trkpt lat="44.50369" lon="5.9952">
        <ele>1026.3447265625</ele>
        <time>2014-06-08T08:56:23Z</time>
      </trkpt>
      <trkpt lat="44.50377" lon="5.99519">
        <ele>1025.8640136719</ele>
        <time>2014-06-08T08:56:24Z</time>
      </trkpt>
      <trkpt lat="44.5045" lon="5.99527">
        <ele>1025.3833007812</ele>
        <time>2014-06-08T08:56:33Z</time>
      </trkpt>
      <trkpt lat="44.50554" lon="5.99488">
        <ele>1023.94140625</ele>
        <time>2014-06-08T08:56:47Z</time>
      </trkpt>
      <trkpt lat="44.50621" lon="5.99438">
        <ele>1022.4995117188</ele>
        <time>2014-06-08T08:56:57Z</time>
      </trkpt>
      <trkpt lat="44.50651" lon="5.99392">
        <ele>1022.0187988281</ele>
        <time>2014-06-08T08:57:03Z</time>
      </trkpt>
      <trkpt lat="44.50662" lon="5.99363">
        <ele>1022.0187988281</ele>
        <time>2014-06-08T08:57:06Z</time>
      </trkpt>
      <trkpt lat="44.50742" lon="5.99222">
        <ele>1020.5769042969</ele>
        <time>2014-06-08T08:57:22Z</time>
      </trkpt>
      <trkpt lat="44.5077" lon="5.99201">
        <ele>1020.5769042969</ele>
        <time>2014-06-08T08:57:26Z</time>
      </trkpt>
      <trkpt lat="44.50866" lon="5.99203">
        <ele>1018.1733398438</ele>
        <time>2014-06-08T08:57:37Z</time>
      </trkpt>
      <trkpt lat="44.50901" lon="5.99212">
        <ele>1016.7314453125</ele>
        <time>2014-06-08T08:57:41Z</time>
      </trkpt>
      <trkpt lat="44.50956" lon="5.99221">
        <ele>1013.8474121094</ele>
        <time>2014-06-08T08:57:47Z</time>
      </trkpt>
      <trkpt lat="44.51005" lon="5.99276">
        <ele>1011.9250488281</ele>
        <time>2014-06-08T08:57:54Z</time>
      </trkpt>
      <trkpt lat="44.51006" lon="5.99316">
        <ele>1011.4443359375</ele>
        <time>2014-06-08T08:57:57Z</time>
      </trkpt>
      <trkpt lat="44.50999" lon="5.99423">
        <ele>1009.041015625</ele>
        <time>2014-06-08T08:58:05Z</time>
      </trkpt>
      <trkpt lat="44.51013" lon="5.99486">
        <ele>1007.1184082031</ele>
        <time>2014-06-08T08:58:10Z</time>
      </trkpt>
      <trkpt lat="44.51089" lon="5.99627">
        <ele>1004.2346191406</ele>
        <time>2014-06-08T08:58:23Z</time>
      </trkpt>
      <trkpt lat="44.5109" lon="5.99696">
        <ele>1004.2346191406</ele>
        <time>2014-06-08T08:58:29Z</time>
      </trkpt>
      <trkpt lat="44.51085" lon="5.99705">
        <ele>1004.2346191406</ele>
        <time>2014-06-08T08:58:30Z</time>
      </trkpt>
      <trkpt lat="44.51062" lon="5.99739">
        <ele>1003.7536621094</ele>
        <time>2014-06-08T08:58:34Z</time>
      </trkpt>
      <trkpt lat="44.51035" lon="5.99808">
        <ele>1002.7922363281</ele>
        <time>2014-06-08T08:58:41Z</time>
      </trkpt>
      <trkpt lat="44.51037" lon="5.9986">
        <ele>1002.3115234375</ele>
        <time>2014-06-08T08:58:46Z</time>
      </trkpt>
      <trkpt lat="44.5108" lon="5.99966">
        <ele>1000.3891601562</ele>
        <time>2014-06-08T08:58:56Z</time>
      </trkpt>
      <trkpt lat="44.51108" lon="5.99996">
        <ele>998.46630859375</ele>
        <time>2014-06-08T08:59:00Z</time>
      </trkpt>
      <trkpt lat="44.5114" lon="6.00019">
        <ele>997.50512695312</ele>
        <time>2014-06-08T08:59:04Z</time>
      </trkpt>
      <trkpt lat="44.51169" lon="6.00092">
        <ele>997.0244140625</ele>
        <time>2014-06-08T08:59:11Z</time>
      </trkpt>
      <trkpt lat="44.51154" lon="6.00237">
        <ele>996.06323242188</ele>
        <time>2014-06-08T08:59:24Z</time>
      </trkpt>
      <trkpt lat="44.51154" lon="6.00286">
        <ele>995.58251953125</ele>
        <time>2014-06-08T08:59:29Z</time>
      </trkpt>
      <trkpt lat="44.51162" lon="6.00331">
        <ele>995.58251953125</ele>
        <time>2014-06-08T08:59:34Z</time>
      </trkpt>
      <trkpt lat="44.512" lon="6.00535">
        <ele>995.10180664062</ele>
        <time>2014-06-08T08:59:55Z</time>
      </trkpt>
      <trkpt lat="44.5123" lon="6.00714">
        <ele>992.21801757812</ele>
        <time>2014-06-08T09:00:11Z</time>
      </trkpt>
      <trkpt lat="44.51249" lon="6.00855">
        <ele>991.25659179688</ele>
        <time>2014-06-08T09:00:24Z</time>
      </trkpt>
      <trkpt lat="44.51269" lon="6.00899">
        <ele>991.25659179688</ele>
        <time>2014-06-08T09:00:29Z</time>
      </trkpt>
      <trkpt lat="44.51357" lon="6.00976">
        <ele>989.333984375</ele>
        <time>2014-06-08T09:00:42Z</time>
      </trkpt>
      <trkpt lat="44.51435" lon="6.01016">
        <ele>986.44995117188</ele>
        <time>2014-06-08T09:00:51Z</time>
      </trkpt>
      <trkpt lat="44.51453" lon="6.01025">
        <ele>985.48852539062</ele>
        <time>2014-06-08T09:00:53Z</time>
      </trkpt>
      <trkpt lat="44.51499" lon="6.01089">
        <ele>983.56591796875</ele>
        <time>2014-06-08T09:01:00Z</time>
      </trkpt>
      <trkpt lat="44.51519" lon="6.01153">
        <ele>979.720703125</ele>
        <time>2014-06-08T09:01:05Z</time>
      </trkpt>
      <trkpt lat="44.51534" lon="6.01186">
        <ele>976.8369140625</ele>
        <time>2014-06-08T09:01:10Z</time>
      </trkpt>
      <trkpt lat="44.51536" lon="6.01188">
        <ele>975.87548828125</ele>
        <time>2014-06-08T09:01:34Z</time>
      </trkpt>
      <trkpt lat="44.51534" lon="6.01188">
        <ele>976.8369140625</ele>
        <time>2014-06-08T09:04:47Z</time>
      </trkpt>
      <trkpt lat="44.51552" lon="6.01229">
        <ele>976.8369140625</ele>
        <time>2014-06-08T09:05:00Z</time>
      </trkpt>
      <trkpt lat="44.51552" lon="6.0131">
        <ele>974.91430664062</ele>
        <time>2014-06-08T09:05:13Z</time>
      </trkpt>
      <trkpt lat="44.51549" lon="6.0133">
        <ele>973.95288085938</ele>
        <time>2014-06-08T09:05:15Z</time>
      </trkpt>
      <trkpt lat="44.51548" lon="6.01339">
        <ele>973.47241210938</ele>
        <time>2014-06-08T09:05:16Z</time>
      </trkpt>
      <trkpt lat="44.51575" lon="6.01419">
        <ele>971.54931640625</ele>
        <time>2014-06-08T09:05:24Z</time>
      </trkpt>
      <trkpt lat="44.51612" lon="6.01464">
        <ele>968.66552734375</ele>
        <time>2014-06-08T09:05:29Z</time>
      </trkpt>
      <trkpt lat="44.51636" lon="6.01511">
        <ele>965.78173828125</ele>
        <time>2014-06-08T09:05:33Z</time>
      </trkpt>
      <trkpt lat="44.51645" lon="6.01538">
        <ele>963.37841796875</ele>
        <time>2014-06-08T09:05:36Z</time>
      </trkpt>
      <trkpt lat="44.51643" lon="6.01612">
        <ele>963.85888671875</ele>
        <time>2014-06-08T09:05:44Z</time>
      </trkpt>
      <trkpt lat="44.51635" lon="6.01642">
        <ele>964.33959960938</ele>
        <time>2014-06-08T09:05:48Z</time>
      </trkpt>
      <trkpt lat="44.51632" lon="6.01684">
        <ele>962.89770507812</ele>
        <time>2014-06-08T09:05:53Z</time>
      </trkpt>
      <trkpt lat="44.51644" lon="6.01749">
        <ele>960.49438476562</ele>
        <time>2014-06-08T09:05:59Z</time>
      </trkpt>
      <trkpt lat="44.51652" lon="6.01799">
        <ele>957.1298828125</ele>
        <time>2014-06-08T09:06:04Z</time>
      </trkpt>
      <trkpt lat="44.51653" lon="6.01823">
        <ele>956.16845703125</ele>
        <time>2014-06-08T09:06:06Z</time>
      </trkpt>
      <trkpt lat="44.5164" lon="6.01871">
        <ele>954.24584960938</ele>
        <time>2014-06-08T09:06:10Z</time>
      </trkpt>
      <trkpt lat="44.51626" lon="6.01884">
        <ele>952.8037109375</ele>
        <time>2014-06-08T09:06:12Z</time>
      </trkpt>
      <trkpt lat="44.5161" lon="6.01895">
        <ele>951.84252929688</ele>
        <time>2014-06-08T09:06:14Z</time>
      </trkpt>
      <trkpt lat="44.51558" lon="6.01931">
        <ele>948.95849609375</ele>
        <time>2014-06-08T09:06:20Z</time>
      </trkpt>
      <trkpt lat="44.51516" lon="6.01943">
        <ele>946.55541992188</ele>
        <time>2014-06-08T09:06:24Z</time>
      </trkpt>
      <trkpt lat="44.51484" lon="6.01945">
        <ele>944.63256835938</ele>
        <time>2014-06-08T09:06:27Z</time>
      </trkpt>
      <trkpt lat="44.51457" lon="6.01981">
        <ele>942.2294921875</ele>
        <time>2014-06-08T09:06:32Z</time>
      </trkpt>
      <trkpt lat="44.51457" lon="6.0202">
        <ele>941.74877929688</ele>
        <time>2014-06-08T09:06:35Z</time>
      </trkpt>
      <trkpt lat="44.51466" lon="6.02059">
        <ele>940.30688476562</ele>
        <time>2014-06-08T09:06:38Z</time>
      </trkpt>
      <trkpt lat="44.5148" lon="6.0208">
        <ele>939.34521484375</ele>
        <time>2014-06-08T09:06:40Z</time>
      </trkpt>
      <trkpt lat="44.51505" lon="6.02111">
        <ele>937.42260742188</ele>
        <time>2014-06-08T09:06:43Z</time>
      </trkpt>
      <trkpt lat="44.51554" lon="6.02156">
        <ele>933.0966796875</ele>
        <time>2014-06-08T09:06:48Z</time>
      </trkpt>
      <trkpt lat="44.51586" lon="6.02184">
        <ele>931.17431640625</ele>
        <time>2014-06-08T09:06:51Z</time>
      </trkpt>
      <trkpt lat="44.51646" lon="6.02205">
        <ele>927.3291015625</ele>
        <time>2014-06-08T09:06:56Z</time>
      </trkpt>
      <trkpt lat="44.51705" lon="6.02208">
        <ele>924.92578125</ele>
        <time>2014-06-08T09:07:01Z</time>
      </trkpt>
      <trkpt lat="44.51752" lon="6.02235">
        <ele>923.0029296875</ele>
        <time>2014-06-08T09:07:06Z</time>
      </trkpt>
      <trkpt lat="44.51831" lon="6.0223">
        <ele>921.08032226562</ele>
        <time>2014-06-08T09:07:14Z</time>
      </trkpt>
      <trkpt lat="44.51954" lon="6.02242">
        <ele>920.11889648438</ele>
        <time>2014-06-08T09:07:27Z</time>
      </trkpt>
      <trkpt lat="44.51982" lon="6.0225">
        <ele>919.15771484375</ele>
        <time>2014-06-08T09:07:30Z</time>
      </trkpt>
      <trkpt lat="44.52028" lon="6.02304">
        <ele>915.3125</ele>
        <time>2014-06-08T09:07:36Z</time>
      </trkpt>
      <trkpt lat="44.52029" lon="6.02337">
        <ele>914.35107421875</ele>
        <time>2014-06-08T09:07:38Z</time>
      </trkpt>
      <trkpt lat="44.52027" lon="6.02385">
        <ele>911.46728515625</ele>
        <time>2014-06-08T09:07:41Z</time>
      </trkpt>
      <trkpt lat="44.52056" lon="6.02437">
        <ele>907.14111328125</ele>
        <time>2014-06-08T09:07:45Z</time>
      </trkpt>
      <trkpt lat="44.52077" lon="6.02459">
        <ele>905.21850585938</ele>
        <time>2014-06-08T09:07:47Z</time>
      </trkpt>
      <trkpt lat="44.52097" lon="6.02484">
        <ele>903.2958984375</ele>
        <time>2014-06-08T09:07:49Z</time>
      </trkpt>
      <trkpt lat="44.52143" lon="6.02521">
        <ele>898.96997070312</ele>
        <time>2014-06-08T09:07:53Z</time>
      </trkpt>
      <trkpt lat="44.52192" lon="6.0256">
        <ele>894.64404296875</ele>
        <time>2014-06-08T09:07:57Z</time>
      </trkpt>
      <trkpt lat="44.52205" lon="6.02569">
        <ele>893.68286132812</ele>
        <time>2014-06-08T09:07:58Z</time>
      </trkpt>
      <trkpt lat="44.52247" lon="6.02586">
        <ele>888.87622070312</ele>
        <time>2014-06-08T09:08:01Z</time>
      </trkpt>
      <trkpt lat="44.52275" lon="6.02599">
        <ele>886.95336914062</ele>
        <time>2014-06-08T09:08:03Z</time>
      </trkpt>
      <trkpt lat="44.52333" lon="6.02614">
        <ele>882.14697265625</ele>
        <time>2014-06-08T09:08:07Z</time>
      </trkpt>
      <trkpt lat="44.52363" lon="6.02617">
        <ele>878.78247070312</ele>
        <time>2014-06-08T09:08:09Z</time>
      </trkpt>
      <trkpt lat="44.52409" lon="6.02621">
        <ele>874.93701171875</ele>
        <time>2014-06-08T09:08:12Z</time>
      </trkpt>
      <trkpt lat="44.52439" lon="6.0262">
        <ele>872.05297851562</ele>
        <time>2014-06-08T09:08:14Z</time>
      </trkpt>
      <trkpt lat="44.52467" lon="6.02622">
        <ele>869.64990234375</ele>
        <time>2014-06-08T09:08:16Z</time>
      </trkpt>
      <trkpt lat="44.52525" lon="6.0262">
        <ele>864.84326171875</ele>
        <time>2014-06-08T09:08:20Z</time>
      </trkpt>
      <trkpt lat="44.52562" lon="6.02584">
        <ele>860.03662109375</ele>
        <time>2014-06-08T09:08:23Z</time>
      </trkpt>
      <trkpt lat="44.52611" lon="6.0253">
        <ele>856.671875</ele>
        <time>2014-06-08T09:08:27Z</time>
      </trkpt>
      <trkpt lat="44.52624" lon="6.02517">
        <ele>854.74926757812</ele>
        <time>2014-06-08T09:08:28Z</time>
      </trkpt>
      <trkpt lat="44.5267" lon="6.02458">
        <ele>848.50073242188</ele>
        <time>2014-06-08T09:08:32Z</time>
      </trkpt>
      <trkpt lat="44.52719" lon="6.0241">
        <ele>842.73291015625</ele>
        <time>2014-06-08T09:08:36Z</time>
      </trkpt>
      <trkpt lat="44.52743" lon="6.02391">
        <ele>839.3681640625</ele>
        <time>2014-06-08T09:08:38Z</time>
      </trkpt>
      <trkpt lat="44.52779" lon="6.02355">
        <ele>834.56176757812</ele>
        <time>2014-06-08T09:08:42Z</time>
      </trkpt>
      <trkpt lat="44.52817" lon="6.02387">
        <ele>831.197265625</ele>
        <time>2014-06-08T09:08:47Z</time>
      </trkpt>
      <trkpt lat="44.52809" lon="6.02441">
        <ele>830.71655273438</ele>
        <time>2014-06-08T09:08:51Z</time>
      </trkpt>
      <trkpt lat="44.52777" lon="6.02536">
        <ele>828.7939453125</ele>
        <time>2014-06-08T09:08:59Z</time>
      </trkpt>
      <trkpt lat="44.52768" lon="6.02597">
        <ele>828.31323242188</ele>
        <time>2014-06-08T09:09:04Z</time>
      </trkpt>
      <trkpt lat="44.52751" lon="6.02637">
        <ele>827.35180664062</ele>
        <time>2014-06-08T09:09:08Z</time>
      </trkpt>
      <trkpt lat="44.52732" lon="6.02661">
        <ele>827.83227539062</ele>
        <time>2014-06-08T09:09:11Z</time>
      </trkpt>
      <trkpt lat="44.52712" lon="6.0274">
        <ele>825.90966796875</ele>
        <time>2014-06-08T09:09:18Z</time>
      </trkpt>
      <trkpt lat="44.52711" lon="6.02778">
        <ele>824.94848632812</ele>
        <time>2014-06-08T09:09:21Z</time>
      </trkpt>
      <trkpt lat="44.52711" lon="6.02804">
        <ele>823.50659179688</ele>
        <time>2014-06-08T09:09:23Z</time>
      </trkpt>
      <trkpt lat="44.52676" lon="6.02962">
        <ele>821.10327148438</ele>
        <time>2014-06-08T09:09:36Z</time>
      </trkpt>
      <trkpt lat="44.52662" lon="6.03007">
        <ele>820.62255859375</ele>
        <time>2014-06-08T09:09:40Z</time>
      </trkpt>
      <trkpt lat="44.52662" lon="6.03105">
        <ele>818.69995117188</ele>
        <time>2014-06-08T09:09:48Z</time>
      </trkpt>
      <trkpt lat="44.52687" lon="6.03145">
        <ele>816.77734375</ele>
        <time>2014-06-08T09:09:52Z</time>
      </trkpt>
      <trkpt lat="44.52695" lon="6.03152">
        <ele>816.29663085938</ele>
        <time>2014-06-08T09:09:53Z</time>
      </trkpt>
      <trkpt lat="44.52712" lon="6.03166">
        <ele>814.85473632812</ele>
        <time>2014-06-08T09:09:55Z</time>
      </trkpt>
      <trkpt lat="44.52717" lon="6.03234">
        <ele>812.93212890625</ele>
        <time>2014-06-08T09:10:01Z</time>
      </trkpt>
      <trkpt lat="44.52693" lon="6.03277">
        <ele>811.00927734375</ele>
        <time>2014-06-08T09:10:05Z</time>
      </trkpt>
      <trkpt lat="44.52653" lon="6.03317">
        <ele>808.60595703125</ele>
        <time>2014-06-08T09:10:10Z</time>
      </trkpt>
      <trkpt lat="44.52636" lon="6.03327">
        <ele>807.64477539062</ele>
        <time>2014-06-08T09:10:12Z</time>
      </trkpt>
      <trkpt lat="44.52626" lon="6.03385">
        <ele>805.72216796875</ele>
        <time>2014-06-08T09:10:17Z</time>
      </trkpt>
      <trkpt lat="44.52681" lon="6.0344">
        <ele>803.79956054688</ele>
        <time>2014-06-08T09:10:24Z</time>
      </trkpt>
      <trkpt lat="44.52717" lon="6.0344">
        <ele>803.79956054688</ele>
        <time>2014-06-08T09:10:28Z</time>
      </trkpt>
      <trkpt lat="44.52761" lon="6.0343">
        <ele>804.2802734375</ele>
        <time>2014-06-08T09:10:33Z</time>
      </trkpt>
      <trkpt lat="44.52817" lon="6.03453">
        <ele>803.31884765625</ele>
        <time>2014-06-08T09:10:40Z</time>
      </trkpt>
      <trkpt lat="44.52892" lon="6.03538">
        <ele>802.357421875</ele>
        <time>2014-06-08T09:10:54Z</time>
      </trkpt>
      <trkpt lat="44.52908" lon="6.03615">
        <ele>798.51220703125</ele>
        <time>2014-06-08T09:11:01Z</time>
      </trkpt>
      <trkpt lat="44.52903" lon="6.03627">
        <ele>798.51220703125</ele>
        <time>2014-06-08T09:11:02Z</time>
      </trkpt>
      <trkpt lat="44.52893" lon="6.03651">
        <ele>797.55102539062</ele>
        <time>2014-06-08T09:11:04Z</time>
      </trkpt>
      <trkpt lat="44.52895" lon="6.03715">
        <ele>793.22485351562</ele>
        <time>2014-06-08T09:11:09Z</time>
      </trkpt>
      <trkpt lat="44.5292" lon="6.03744">
        <ele>791.30224609375</ele>
        <time>2014-06-08T09:11:12Z</time>
      </trkpt>
      <trkpt lat="44.52973" lon="6.03797">
        <ele>786.97631835938</ele>
        <time>2014-06-08T09:11:18Z</time>
      </trkpt>
      <trkpt lat="44.53019" lon="6.03851">
        <ele>783.13110351562</ele>
        <time>2014-06-08T09:11:23Z</time>
      </trkpt>
      <trkpt lat="44.53048" lon="6.03886">
        <ele>780.72802734375</ele>
        <time>2014-06-08T09:11:26Z</time>
      </trkpt>
      <trkpt lat="44.53075" lon="6.03924">
        <ele>777.84375</ele>
        <time>2014-06-08T09:11:29Z</time>
      </trkpt>
      <trkpt lat="44.53084" lon="6.03936">
        <ele>776.88256835938</ele>
        <time>2014-06-08T09:11:30Z</time>
      </trkpt>
      <trkpt lat="44.53125" lon="6.03965">
        <ele>773.03735351562</ele>
        <time>2014-06-08T09:11:34Z</time>
      </trkpt>
      <trkpt lat="44.53174" lon="6.04003">
        <ele>770.1533203125</ele>
        <time>2014-06-08T09:11:39Z</time>
      </trkpt>
      <trkpt lat="44.53188" lon="6.04028">
        <ele>769.6728515625</ele>
        <time>2014-06-08T09:11:41Z</time>
      </trkpt>
      <trkpt lat="44.53239" lon="6.04194">
        <ele>768.23071289062</ele>
        <time>2014-06-08T09:11:54Z</time>
      </trkpt>
      <trkpt lat="44.53274" lon="6.04314">
        <ele>771.11474609375</ele>
        <time>2014-06-08T09:12:07Z</time>
      </trkpt>
      <trkpt lat="44.53285" lon="6.04363">
        <ele>773.03735351562</ele>
        <time>2014-06-08T09:12:17Z</time>
      </trkpt>
      <trkpt lat="44.53308" lon="6.04379">
        <ele>773.51806640625</ele>
        <time>2014-06-08T09:12:23Z</time>
      </trkpt>
      <trkpt lat="44.53336" lon="6.04401">
        <ele>773.99853515625</ele>
        <time>2014-06-08T09:12:30Z</time>
      </trkpt>
      <trkpt lat="44.53414" lon="6.04484">
        <ele>774.47924804688</ele>
        <time>2014-06-08T09:12:46Z</time>
      </trkpt>
      <trkpt lat="44.53506" lon="6.04612">
        <ele>773.99853515625</ele>
        <time>2014-06-08T09:13:06Z</time>
      </trkpt>
      <trkpt lat="44.53553" lon="6.04685">
        <ele>773.99853515625</ele>
        <time>2014-06-08T09:13:19Z</time>
      </trkpt>
      <trkpt lat="44.53569" lon="6.04712">
        <ele>772.07592773438</ele>
        <time>2014-06-08T09:13:24Z</time>
      </trkpt>
      <trkpt lat="44.53594" lon="6.0476">
        <ele>772.556640625</ele>
        <time>2014-06-08T09:13:32Z</time>
      </trkpt>
      <trkpt lat="44.53642" lon="6.04854">
        <ele>776.88256835938</ele>
        <time>2014-06-08T09:13:49Z</time>
      </trkpt>
      <trkpt lat="44.53711" lon="6.04943">
        <ele>779.28564453125</ele>
        <time>2014-06-08T09:14:07Z</time>
      </trkpt>
      <trkpt lat="44.53755" lon="6.05025">
        <ele>781.68920898438</ele>
        <time>2014-06-08T09:14:23Z</time>
      </trkpt>
      <trkpt lat="44.5376" lon="6.0505">
        <ele>782.169921875</ele>
        <time>2014-06-08T09:14:27Z</time>
      </trkpt>
      <trkpt lat="44.53762" lon="6.05113">
        <ele>781.68920898438</ele>
        <time>2014-06-08T09:14:38Z</time>
      </trkpt>
      <trkpt lat="44.53763" lon="6.05138">
        <ele>781.20874023438</ele>
        <time>2014-06-08T09:14:42Z</time>
      </trkpt>
      <trkpt lat="44.53759" lon="6.0517">
        <ele>780.72802734375</ele>
        <time>2014-06-08T09:14:47Z</time>
      </trkpt>
      <trkpt lat="44.53777" lon="6.05193">
        <ele>779.76635742188</ele>
        <time>2014-06-08T09:14:53Z</time>
      </trkpt>
      <trkpt lat="44.53781" lon="6.0519">
        <ele>780.24731445312</ele>
        <time>2014-06-08T09:14:54Z</time>
      </trkpt>
      <trkpt lat="44.53825" lon="6.05171">
        <ele>781.20874023438</ele>
        <time>2014-06-08T09:15:08Z</time>
      </trkpt>
      <trkpt lat="44.53885" lon="6.0517">
        <ele>784.09252929688</ele>
        <time>2014-06-08T09:15:28Z</time>
      </trkpt>
      <trkpt lat="44.53931" lon="6.05176">
        <ele>787.45703125</ele>
        <time>2014-06-08T09:15:42Z</time>
      </trkpt>
      <trkpt lat="44.53977" lon="6.05187">
        <ele>790.82153320312</ele>
        <time>2014-06-08T09:15:58Z</time>
      </trkpt>
      <trkpt lat="44.5398" lon="6.05189">
        <ele>790.82153320312</ele>
        <time>2014-06-08T09:16:09Z</time>
      </trkpt>
      <trkpt lat="44.53995" lon="6.05191">
        <ele>791.30224609375</ele>
        <time>2014-06-08T09:16:20Z</time>
      </trkpt>
      <trkpt lat="44.54049" lon="6.05201">
        <ele>793.70556640625</ele>
        <time>2014-06-08T09:16:41Z</time>
      </trkpt>
      <trkpt lat="44.54116" lon="6.05214">
        <ele>796.58984375</ele>
        <time>2014-06-08T09:17:05Z</time>
      </trkpt>
      <trkpt lat="44.54187" lon="6.05234">
        <ele>799.95434570312</ele>
        <time>2014-06-08T09:17:28Z</time>
      </trkpt>
      <trkpt lat="44.54238" lon="6.0526">
        <ele>802.83813476562</ele>
        <time>2014-06-08T09:17:45Z</time>
      </trkpt>
      <trkpt lat="44.54318" lon="6.0529">
        <ele>804.7607421875</ele>
        <time>2014-06-08T09:18:11Z</time>
      </trkpt>
      <trkpt lat="44.54382" lon="6.05309">
        <ele>806.20263671875</ele>
        <time>2014-06-08T09:18:32Z</time>
      </trkpt>
      <trkpt lat="44.54473" lon="6.05338">
        <ele>807.64477539062</ele>
        <time>2014-06-08T09:18:57Z</time>
      </trkpt>
      <trkpt lat="44.54551" lon="6.0535">
        <ele>810.52856445312</ele>
        <time>2014-06-08T09:19:18Z</time>
      </trkpt>
      <trkpt lat="44.5461" lon="6.05349">
        <ele>813.41284179688</ele>
        <time>2014-06-08T09:19:35Z</time>
      </trkpt>
      <trkpt lat="44.54668" lon="6.05352">
        <ele>816.29663085938</ele>
        <time>2014-06-08T09:19:52Z</time>
      </trkpt>
      <trkpt lat="44.54744" lon="6.05397">
        <ele>818.69995117188</ele>
        <time>2014-06-08T09:20:14Z</time>
      </trkpt>
      <trkpt lat="44.54814" lon="6.05456">
        <ele>819.66137695312</ele>
        <time>2014-06-08T09:20:35Z</time>
      </trkpt>
      <trkpt lat="44.54889" lon="6.05499">
        <ele>821.58374023438</ele>
        <time>2014-06-08T09:20:55Z</time>
      </trkpt>
      <trkpt lat="44.54936" lon="6.05513">
        <ele>824.94848632812</ele>
        <time>2014-06-08T09:21:09Z</time>
      </trkpt>
      <trkpt lat="44.54978" lon="6.05521">
        <ele>827.83227539062</ele>
        <time>2014-06-08T09:21:22Z</time>
      </trkpt>
      <trkpt lat="44.55063" lon="6.05519">
        <ele>827.35180664062</ele>
        <time>2014-06-08T09:21:42Z</time>
      </trkpt>
      <trkpt lat="44.55132" lon="6.05511">
        <ele>827.83227539062</ele>
        <time>2014-06-08T09:21:58Z</time>
      </trkpt>
      <trkpt lat="44.55252" lon="6.05496">
        <ele>830.71655273438</ele>
        <time>2014-06-08T09:22:28Z</time>
      </trkpt>
      <trkpt lat="44.5534" lon="6.05494">
        <ele>832.63916015625</ele>
        <time>2014-06-08T09:22:50Z</time>
      </trkpt>
      <trkpt lat="44.55424" lon="6.05499">
        <ele>833.11962890625</ele>
        <time>2014-06-08T09:23:14Z</time>
      </trkpt>
      <trkpt lat="44.55509" lon="6.05502">
        <ele>833.60034179688</ele>
        <time>2014-06-08T09:23:35Z</time>
      </trkpt>
      <trkpt lat="44.55573" lon="6.05506">
        <ele>836.484375</ele>
        <time>2014-06-08T09:23:53Z</time>
      </trkpt>
      <trkpt lat="44.55618" lon="6.05508">
        <ele>839.84887695312</ele>
        <time>2014-06-08T09:24:07Z</time>
      </trkpt>
      <trkpt lat="44.55621" lon="6.05509">
        <ele>839.3681640625</ele>
        <time>2014-06-08T09:24:08Z</time>
      </trkpt>
      <trkpt lat="44.55651" lon="6.05513">
        <ele>841.771484375</ele>
        <time>2014-06-08T09:24:18Z</time>
      </trkpt>
      <trkpt lat="44.55698" lon="6.05518">
        <ele>844.65551757812</ele>
        <time>2014-06-08T09:24:33Z</time>
      </trkpt>
      <trkpt lat="44.55724" lon="6.0552">
        <ele>846.09765625</ele>
        <time>2014-06-08T09:24:44Z</time>
      </trkpt>
      <trkpt lat="44.55741" lon="6.05538">
        <ele>846.09765625</ele>
        <time>2014-06-08T09:24:51Z</time>
      </trkpt>
      <trkpt lat="44.55777" lon="6.05532">
        <ele>846.09765625</ele>
        <time>2014-06-08T09:25:00Z</time>
      </trkpt>
      <trkpt lat="44.55784" lon="6.05525">
        <ele>846.09765625</ele>
        <time>2014-06-08T09:25:02Z</time>
      </trkpt>
      <trkpt lat="44.55796" lon="6.05516">
        <ele>846.57836914062</ele>
        <time>2014-06-08T09:25:05Z</time>
      </trkpt>
      <trkpt lat="44.55806" lon="6.05494">
        <ele>847.05883789062</ele>
        <time>2014-06-08T09:25:09Z</time>
      </trkpt>
      <trkpt lat="44.55806" lon="6.05437">
        <ele>848.9814453125</ele>
        <time>2014-06-08T09:25:22Z</time>
      </trkpt>
      <trkpt lat="44.55804" lon="6.05421">
        <ele>848.9814453125</ele>
        <time>2014-06-08T09:25:33Z</time>
      </trkpt>
      <trkpt lat="44.55802" lon="6.05421">
        <ele>848.9814453125</ele>
        <time>2014-06-08T09:25:45Z</time>
      </trkpt>
    </trkseg>
  </trk>
</gpx>